CCA983 ZBAA-KLAX
Flight info
| Callsign | CCA983 |
|---|---|
| Flight time | N/A |
| Altitude | 31100 |
| Route | MUGLO9Z MUGLO W34 VAPGU W100 MUDOT DCT UNSEK A326 DONVO G597 AGAVO/N0500F310 Y644 EGOBA Y697 LANAT Y51 DISSH/N0497F330 Y51 SAMON Y142 GTC Y512 ADNAP OTR7 EMRON DCT 39N160E 39N170E/N0487F350 39N180E 39N170W 38N160W 38N150W 38N145W/N0488F370 39N140W 38N130W DCT ALLBE DCT PIRAT DCT BURGL IRNMN2 |
| Aircraft | B77W/H-SDE1E2E3FGHIJ2J3J4J5M1RWXY/LB1D1 |
Departure
| Time | 2026-05-07 22:53 |
|---|---|
| Airport | Beijing Capital International Airport (ZBAA) |
Arrival
| Time | N/A |
|---|---|
| Airport | Los Angeles International Airport (KLAX) |
| Time | Latitude | Longitude | Altitude | Speed | Heading |
|---|---|---|---|---|---|
| 2026-05-07 22:37 | 40.07938 | 116.60879 | 129 ft | 0 kts | 143° |
| 2026-05-07 22:41 | 40.07944 | 116.60873 | 123 ft | 2 kts | 142° |
| 2026-05-07 22:42 | 40.07957 | 116.60861 | 123 ft | 2 kts | 146° |
| 2026-05-07 22:42 | 40.07971 | 116.60849 | 123 ft | 2 kts | 150° |
| 2026-05-07 22:42 | 40.07986 | 116.60839 | 127 ft | 2 kts | 157° |
| 2026-05-07 22:42 | 40.08002 | 116.60833 | 123 ft | 2 kts | 172° |
| 2026-05-07 22:43 | 40.08018 | 116.60834 | 124 ft | 2 kts | 210° |
| 2026-05-07 22:43 | 40.08028 | 116.60844 | 123 ft | 1 kts | 232° |
| 2026-05-07 22:43 | 40.08028 | 116.60845 | 123 ft | 0 kts | 232° |
| 2026-05-07 22:45 | 40.08020 | 116.60829 | 124 ft | 10 kts | 233° |
| 2026-05-07 22:46 | 40.07949 | 116.60709 | 123 ft | 15 kts | 232° |
| 2026-05-07 22:46 | 40.07953 | 116.60623 | 126 ft | 10 kts | 322° |
| 2026-05-07 22:46 | 40.08050 | 116.60592 | 126 ft | 21 kts | 351° |
| 2026-05-07 22:46 | 40.08154 | 116.60530 | 126 ft | 15 kts | 283° |
| 2026-05-07 22:47 | 40.08146 | 116.60386 | 128 ft | 22 kts | 264° |
| 2026-05-07 22:47 | 40.08122 | 116.60110 | 125 ft | 34 kts | 263° |
| 2026-05-07 22:47 | 40.08105 | 116.59927 | 126 ft | 10 kts | 263° |
| 2026-05-07 22:47 | 40.08063 | 116.59864 | 127 ft | 10 kts | 192° |
| 2026-05-07 22:48 | 40.07973 | 116.59872 | 126 ft | 22 kts | 174° |
| 2026-05-07 22:48 | 40.07738 | 116.59908 | 124 ft | 43 kts | 173° |
| 2026-05-07 22:48 | 40.07447 | 116.59953 | 126 ft | 40 kts | 173° |
| 2026-05-07 22:48 | 40.07186 | 116.59994 | 124 ft | 37 kts | 173° |
| 2026-05-07 22:49 | 40.06941 | 116.60033 | 126 ft | 34 kts | 173° |
| 2026-05-07 22:49 | 40.06718 | 116.60067 | 126 ft | 31 kts | 173° |
| 2026-05-07 22:49 | 40.06513 | 116.60099 | 126 ft | 30 kts | 173° |
| 2026-05-07 22:49 | 40.06303 | 116.60132 | 125 ft | 27 kts | 173° |
| 2026-05-07 22:50 | 40.06225 | 116.60144 | 126 ft | 0 kts | 173° |
| 2026-05-07 22:50 | 40.06149 | 116.60156 | 124 ft | 25 kts | 173° |
| 2026-05-07 22:50 | 40.05910 | 116.60194 | 126 ft | 39 kts | 173° |
| 2026-05-07 22:50 | 40.05689 | 116.60228 | 125 ft | 19 kts | 173° |
| 2026-05-07 22:51 | 40.05635 | 116.60165 | 124 ft | 11 kts | 261° |
| 2026-05-07 22:51 | 40.05633 | 116.60043 | 123 ft | 17 kts | 295° |
| 2026-05-07 22:51 | 40.05700 | 116.59993 | 125 ft | 0 kts | 351° |
| 2026-05-07 22:51 | 40.05701 | 116.59993 | 125 ft | 2 kts | 351° |
| 2026-05-07 22:52 | 40.05916 | 116.59957 | 124 ft | 68 kts | 353° |
| 2026-05-07 22:52 | 40.06624 | 116.59847 | 125 ft | 136 kts | 353° |
| 2026-05-07 22:52 | 40.07765 | 116.59669 | 128 ft | 191 kts | 353° |
| 2026-05-07 22:52 | 40.09175 | 116.59447 | 375 ft | 209 kts | 353° |
| 2026-05-07 22:53 | 40.10551 | 116.59235 | 1180 ft | 199 kts | 352° |
| 2026-05-07 22:53 | 40.11949 | 116.59015 | 1711 ft | 206 kts | 352° |
| 2026-05-07 22:53 | 40.13434 | 116.58785 | 1952 ft | 225 kts | 352° |
| 2026-05-07 22:53 | 40.15043 | 116.58531 | 2298 ft | 238 kts | 352° |
| 2026-05-07 22:54 | 40.16716 | 116.58268 | 2826 ft | 246 kts | 352° |
| 2026-05-07 22:54 | 40.18438 | 116.57989 | 3360 ft | 253 kts | 352° |
| 2026-05-07 22:54 | 40.20204 | 116.57705 | 3943 ft | 259 kts | 352° |
| 2026-05-07 22:54 | 40.22002 | 116.57416 | 4585 ft | 262 kts | 352° |
| 2026-05-07 22:55 | 40.23817 | 116.57123 | 5269 ft | 262 kts | 351° |
| 2026-05-07 22:55 | 40.25532 | 116.56355 | 5754 ft | 265 kts | 324° |
| 2026-05-07 22:55 | 40.26932 | 116.54777 | 6294 ft | 266 kts | 318° |
| 2026-05-07 22:55 | 40.28311 | 116.53158 | 6941 ft | 267 kts | 318° |
| 2026-05-07 22:56 | 40.29698 | 116.51549 | 7601 ft | 266 kts | 319° |
| 2026-05-07 22:56 | 40.30993 | 116.49841 | 8149 ft | 266 kts | 302° |
| 2026-05-07 22:56 | 40.31635 | 116.47552 | 8623 ft | 272 kts | 278° |
| 2026-05-07 22:56 | 40.31692 | 116.45074 | 9218 ft | 274 kts | 272° |
| 2026-05-07 22:57 | 40.31685 | 116.42565 | 9797 ft | 276 kts | 272° |
| 2026-05-07 22:57 | 40.31674 | 116.40049 | 10393 ft | 277 kts | 272° |
| 2026-05-07 22:57 | 40.31667 | 116.37501 | 10645 ft | 293 kts | 272° |
| 2026-05-07 22:57 | 40.31664 | 116.34746 | 10810 ft | 312 kts | 272° |
| 2026-05-07 22:58 | 40.31663 | 116.31813 | 10971 ft | 332 kts | 272° |
| 2026-05-07 22:58 | 40.31661 | 116.28867 | 11143 ft | 348 kts | 272° |
| 2026-05-07 22:58 | 40.31403 | 116.25668 | 11415 ft | 363 kts | 255° |
| 2026-05-07 22:58 | 40.30202 | 116.22712 | 12017 ft | 377 kts | 234° |
| 2026-05-07 22:59 | 40.28253 | 116.20365 | 12670 ft | 388 kts | 215° |
| 2026-05-07 22:59 | 40.25858 | 116.18666 | 13167 ft | 397 kts | 211° |
| 2026-05-07 22:59 | 40.23370 | 116.17023 | 13810 ft | 402 kts | 210° |
| 2026-05-07 22:59 | 40.20864 | 116.15378 | 14510 ft | 405 kts | 211° |
| 2026-05-07 23:00 | 40.18336 | 116.13698 | 15126 ft | 409 kts | 211° |
| 2026-05-07 23:00 | 40.15791 | 116.11983 | 15721 ft | 414 kts | 212° |
| 2026-05-07 23:00 | 40.13218 | 116.10235 | 16325 ft | 419 kts | 212° |
| 2026-05-07 23:00 | 40.10628 | 116.08468 | 16959 ft | 422 kts | 212° |
| 2026-05-07 23:01 | 40.08014 | 116.06685 | 17583 ft | 426 kts | 212° |
| 2026-05-07 23:01 | 40.05362 | 116.04909 | 18165 ft | 430 kts | 209° |
| 2026-05-07 23:01 | 40.02422 | 116.03866 | 18484 ft | 450 kts | 187° |
| 2026-05-07 23:01 | 39.99275 | 116.04177 | 19027 ft | 460 kts | 167° |
| 2026-05-07 23:02 | 39.96256 | 116.05559 | 19548 ft | 462 kts | 160° |
| 2026-05-07 23:02 | 39.93247 | 116.07118 | 19959 ft | 469 kts | 160° |
| 2026-05-07 23:02 | 39.90201 | 116.08679 | 20469 ft | 472 kts | 161° |
| 2026-05-07 23:02 | 39.87120 | 116.10213 | 21036 ft | 475 kts | 161° |
| 2026-05-07 23:03 | 39.84017 | 116.11721 | 21564 ft | 478 kts | 162° |
| 2026-05-07 23:03 | 39.80940 | 116.13255 | 22045 ft | 481 kts | 158° |
| 2026-05-07 23:03 | 39.77932 | 116.15244 | 22459 ft | 489 kts | 151° |
| 2026-05-07 23:03 | 39.74980 | 116.17593 | 22931 ft | 493 kts | 149° |
| 2026-05-07 23:04 | 39.72089 | 116.20024 | 23415 ft | 497 kts | 148° |
| 2026-05-07 23:04 | 39.69168 | 116.22462 | 23852 ft | 500 kts | 149° |
| 2026-05-07 23:04 | 39.66207 | 116.24864 | 24229 ft | 504 kts | 150° |
| 2026-05-07 23:04 | 39.63201 | 116.27238 | 24602 ft | 508 kts | 151° |
| 2026-05-07 23:05 | 39.60164 | 116.29597 | 24991 ft | 511 kts | 151° |
| 2026-05-07 23:05 | 39.57096 | 116.31964 | 25347 ft | 514 kts | 152° |
| 2026-05-07 23:05 | 39.54051 | 116.34314 | 25688 ft | 518 kts | 152° |
| 2026-05-07 23:05 | 39.50948 | 116.36713 | 26030 ft | 522 kts | 152° |
| 2026-05-07 23:06 | 39.47822 | 116.39133 | 26376 ft | 525 kts | 151° |
| 2026-05-07 23:06 | 39.44765 | 116.41769 | 26686 ft | 531 kts | 145° |
| 2026-05-07 23:06 | 39.41852 | 116.44729 | 27000 ft | 535 kts | 142° |
| 2026-05-07 23:06 | 39.38992 | 116.47841 | 27324 ft | 539 kts | 141° |
| 2026-05-07 23:07 | 39.36127 | 116.50982 | 27636 ft | 542 kts | 141° |
| 2026-05-07 23:07 | 39.33221 | 116.54103 | 27934 ft | 545 kts | 142° |
| 2026-05-07 23:07 | 39.30268 | 116.57196 | 28218 ft | 548 kts | 143° |
| 2026-05-07 23:07 | 39.27279 | 116.60274 | 28505 ft | 551 kts | 143° |
| 2026-05-07 23:08 | 39.24274 | 116.63346 | 28770 ft | 554 kts | 143° |
| 2026-05-07 23:08 | 39.21238 | 116.66454 | 29053 ft | 557 kts | 143° |
| 2026-05-07 23:08 | 39.18223 | 116.69612 | 29273 ft | 559 kts | 139° |
| 2026-05-07 23:08 | 39.15676 | 116.73419 | 29330 ft | 565 kts | 121° |
| 2026-05-07 23:09 | 39.13951 | 116.77955 | 29553 ft | 563 kts | 105° |
| 2026-05-07 23:09 | 39.13092 | 116.82819 | 29858 ft | 554 kts | 89° |
| 2026-05-07 23:09 | 39.12922 | 116.87749 | 30097 ft | 550 kts | 86° |
| 2026-05-07 23:09 | 39.12798 | 116.92677 | 30333 ft | 552 kts | 86° |
| 2026-05-07 23:10 | 39.12639 | 116.97619 | 30656 ft | 552 kts | 87° |
| 2026-05-07 23:10 | 39.12441 | 117.02553 | 30994 ft | 551 kts | 88° |
| 2026-05-07 23:10 | 39.12212 | 117.07489 | 31201 ft | 554 kts | 88° |
| 2026-05-07 23:11 | 39.11712 | 117.17425 | 31251 ft | 556 kts | 89° |
| 2026-05-07 23:11 | 39.11205 | 117.27293 | 31247 ft | 551 kts | 89° |
| 2026-05-07 23:12 | 39.10707 | 117.37130 | 31269 ft | 551 kts | 89° |
| 2026-05-07 23:12 | 39.10200 | 117.46981 | 31268 ft | 552 kts | 89° |
| 2026-05-07 23:13 | 39.09664 | 117.56840 | 31256 ft | 553 kts | 89° |
| 2026-05-07 23:13 | 39.09110 | 117.66726 | 31251 ft | 554 kts | 89° |
| 2026-05-07 23:14 | 39.08550 | 117.76617 | 31251 ft | 554 kts | 89° |
| 2026-05-07 23:14 | 39.08080 | 117.84851 | 31253 ft | 555 kts | 89° |
| 2026-05-07 23:15 | 39.07410 | 117.96425 | 31253 ft | 555 kts | 89° |
| 2026-05-07 23:15 | 39.06747 | 118.06259 | 31253 ft | 558 kts | 94° |
| 2026-05-07 23:16 | 39.05220 | 118.16077 | 31256 ft | 561 kts | 99° |
| 2026-05-07 23:16 | 39.03462 | 118.25844 | 31247 ft | 560 kts | 98° |
| 2026-05-07 23:17 | 39.02107 | 118.34048 | 31249 ft | 559 kts | 97° |
| 2026-05-07 23:17 | 39.00570 | 118.43778 | 31245 ft | 559 kts | 97° |
| 2026-05-07 23:18 | 38.98993 | 118.53573 | 31248 ft | 560 kts | 98° |
| 2026-05-07 23:18 | 38.97395 | 118.63398 | 31249 ft | 560 kts | 98° |
| 2026-05-07 23:19 | 38.95807 | 118.73129 | 31248 ft | 561 kts | 98° |
| 2026-05-07 23:19 | 38.94198 | 118.82939 | 31248 ft | 561 kts | 98° |
| 2026-05-07 23:20 | 38.92581 | 118.92752 | 31243 ft | 562 kts | 98° |
| 2026-05-07 23:20 | 38.90952 | 119.02577 | 31242 ft | 563 kts | 98° |
| 2026-05-07 23:21 | 38.89315 | 119.12401 | 31241 ft | 563 kts | 98° |
| 2026-05-07 23:21 | 38.87667 | 119.22231 | 31237 ft | 564 kts | 98° |
| 2026-05-07 23:22 | 38.86009 | 119.32066 | 31237 ft | 564 kts | 98° |
| 2026-05-07 23:22 | 38.84341 | 119.41910 | 31237 ft | 565 kts | 98° |
| 2026-05-07 23:23 | 38.82665 | 119.51745 | 31239 ft | 565 kts | 98° |
| 2026-05-07 23:23 | 38.80979 | 119.61594 | 31238 ft | 565 kts | 98° |
| 2026-05-07 23:24 | 38.79285 | 119.71433 | 31236 ft | 566 kts | 98° |
| 2026-05-07 23:24 | 38.77581 | 119.81283 | 31234 ft | 566 kts | 98° |
| 2026-05-07 23:25 | 38.75682 | 119.91063 | 31224 ft | 569 kts | 105° |
| 2026-05-07 23:25 | 38.72612 | 120.00450 | 31241 ft | 572 kts | 116° |
| 2026-05-07 23:26 | 38.68430 | 120.09133 | 31237 ft | 573 kts | 123° |
| 2026-05-07 23:26 | 38.64200 | 120.17777 | 31233 ft | 573 kts | 117° |
| 2026-05-07 23:27 | 38.59851 | 120.31846 | 31241 ft | 568 kts | 101° |
| 2026-05-07 23:27 | 38.58257 | 120.41692 | 31235 ft | 566 kts | 96° |
| 2026-05-07 23:28 | 38.56714 | 120.51564 | 31238 ft | 567 kts | 98° |
| 2026-05-07 23:28 | 38.55081 | 120.61429 | 31237 ft | 568 kts | 97° |
| 2026-05-07 23:29 | 38.53472 | 120.71308 | 31236 ft | 568 kts | 97° |
| 2026-05-07 23:29 | 38.51865 | 120.81177 | 31228 ft | 568 kts | 97° |
| 2026-05-07 23:30 | 38.50244 | 120.91045 | 31232 ft | 568 kts | 98° |
| 2026-05-07 23:30 | 38.48614 | 121.00892 | 31227 ft | 567 kts | 98° |
| 2026-05-07 23:31 | 38.46976 | 121.10748 | 31222 ft | 567 kts | 98° |
| 2026-05-07 23:31 | 38.45385 | 121.20589 | 31216 ft | 566 kts | 97° |
| 2026-05-07 23:32 | 38.43878 | 121.30442 | 31210 ft | 566 kts | 98° |
| 2026-05-07 23:32 | 38.42236 | 121.40257 | 31207 ft | 566 kts | 98° |
| 2026-05-07 23:33 | 38.40605 | 121.50065 | 31206 ft | 566 kts | 98° |
| 2026-05-07 23:33 | 38.38974 | 121.59879 | 31205 ft | 566 kts | 98° |
| 2026-05-07 23:34 | 38.37334 | 121.69688 | 31206 ft | 566 kts | 98° |
| 2026-05-07 23:34 | 38.35686 | 121.79488 | 31201 ft | 566 kts | 98° |
| 2026-05-07 23:35 | 38.34028 | 121.89291 | 31205 ft | 566 kts | 98° |
| 2026-05-07 23:35 | 38.32362 | 121.99090 | 31217 ft | 566 kts | 98° |
| 2026-05-07 23:36 | 38.30688 | 122.08888 | 31211 ft | 566 kts | 99° |
| 2026-05-07 23:36 | 38.29019 | 122.18614 | 31214 ft | 566 kts | 99° |
| 2026-05-07 23:37 | 38.27358 | 122.28408 | 31216 ft | 565 kts | 97° |
| 2026-05-07 23:37 | 38.25956 | 122.38230 | 31207 ft | 565 kts | 101° |
| 2026-05-07 23:38 | 38.24716 | 122.42983 | 31203 ft | 569 kts | 113° |
| 2026-05-07 23:38 | 38.22845 | 122.47418 | 31217 ft | 569 kts | 123° |
| 2026-05-07 23:38 | 38.20491 | 122.51452 | 31210 ft | 567 kts | 134° |
| 2026-05-07 23:38 | 38.17716 | 122.54985 | 31213 ft | 565 kts | 139° |
| 2026-05-07 23:39 | 38.12057 | 122.61946 | 31204 ft | 567 kts | 137° |
| 2026-05-07 23:39 | 38.06529 | 122.69106 | 31206 ft | 568 kts | 137° |
| 2026-05-07 23:40 | 38.01010 | 122.76305 | 31205 ft | 569 kts | 137° |
| 2026-05-07 23:40 | 37.95479 | 122.83488 | 31206 ft | 569 kts | 137° |
| 2026-05-07 23:41 | 37.89937 | 122.90655 | 31203 ft | 569 kts | 137° |
| 2026-05-07 23:41 | 37.84398 | 122.97799 | 31201 ft | 569 kts | 137° |
| 2026-05-07 23:42 | 37.78855 | 123.04933 | 31204 ft | 568 kts | 138° |
| 2026-05-07 23:42 | 37.73313 | 123.12052 | 31206 ft | 568 kts | 138° |
| 2026-05-07 23:43 | 37.67766 | 123.19162 | 31208 ft | 568 kts | 138° |
| 2026-05-07 23:43 | 37.62223 | 123.26252 | 31219 ft | 567 kts | 138° |
| 2026-05-07 23:44 | 37.56713 | 123.33387 | 31215 ft | 569 kts | 135° |
| 2026-05-07 23:44 | 37.51854 | 123.41207 | 31220 ft | 572 kts | 129° |
| 2026-05-07 23:45 | 37.47146 | 123.49284 | 31203 ft | 572 kts | 129° |
| 2026-05-07 23:45 | 37.42395 | 123.57316 | 31204 ft | 572 kts | 130° |
| 2026-05-07 23:46 | 37.37605 | 123.65311 | 31207 ft | 572 kts | 130° |
| 2026-05-07 23:46 | 37.32806 | 123.73294 | 31203 ft | 572 kts | 130° |
| 2026-05-07 23:47 | 37.28013 | 123.81262 | 31206 ft | 572 kts | 130° |
| 2026-05-07 23:47 | 37.23216 | 123.89222 | 31206 ft | 572 kts | 130° |
| 2026-05-07 23:48 | 37.18846 | 123.97522 | 31198 ft | 574 kts | 114° |
| 2026-05-07 23:48 | 37.17542 | 124.02259 | 31215 ft | 575 kts | 103° |
| 2026-05-07 23:48 | 37.16864 | 124.07181 | 31211 ft | 573 kts | 92° |
| 2026-05-07 23:49 | 37.16903 | 124.12109 | 31218 ft | 568 kts | 81° |
| 2026-05-07 23:49 | 37.17254 | 124.17047 | 31214 ft | 569 kts | 81° |
| 2026-05-07 23:49 | 37.17722 | 124.26978 | 31209 ft | 573 kts | 85° |
| 2026-05-07 23:50 | 37.17902 | 124.36971 | 31205 ft | 574 kts | 86° |
| 2026-05-07 23:50 | 37.18116 | 124.46993 | 31199 ft | 575 kts | 85° |
| 2026-05-07 23:51 | 37.18348 | 124.57002 | 31191 ft | 574 kts | 85° |
| 2026-05-07 23:51 | 37.18568 | 124.67013 | 31193 ft | 574 kts | 86° |
| 2026-05-07 23:52 | 37.18776 | 124.77010 | 31196 ft | 573 kts | 86° |
| 2026-05-07 23:52 | 37.18977 | 124.87005 | 31186 ft | 573 kts | 86° |
| 2026-05-07 23:53 | 37.19179 | 124.96976 | 31196 ft | 572 kts | 86° |
| 2026-05-07 23:53 | 37.19376 | 125.06956 | 31189 ft | 572 kts | 86° |
| 2026-05-07 23:54 | 37.19563 | 125.16939 | 31180 ft | 573 kts | 86° |
| 2026-05-07 23:54 | 37.19741 | 125.26921 | 31184 ft | 573 kts | 87° |
| 2026-05-07 23:55 | 37.19910 | 125.36912 | 31178 ft | 574 kts | 87° |
| 2026-05-07 23:55 | 37.20073 | 125.46921 | 31173 ft | 574 kts | 87° |
| 2026-05-07 23:56 | 37.20218 | 125.56945 | 31179 ft | 574 kts | 88° |
| 2026-05-07 23:56 | 37.20344 | 125.66964 | 31172 ft | 575 kts | 88° |
| 2026-05-07 23:57 | 37.20466 | 125.77000 | 31171 ft | 575 kts | 88° |
| 2026-05-07 23:57 | 37.20580 | 125.87027 | 31164 ft | 575 kts | 88° |
| 2026-05-07 23:58 | 37.20687 | 125.97001 | 31163 ft | 575 kts | 88° |
| 2026-05-07 23:58 | 37.20787 | 126.07031 | 31166 ft | 576 kts | 89° |
| 2026-05-07 23:59 | 37.20878 | 126.17080 | 31161 ft | 576 kts | 89° |
| 2026-05-07 23:59 | 37.20898 | 126.19383 | 31158 ft | 576 kts | 89° |
| 2026-05-08 00:00 | 37.20979 | 126.29436 | 31155 ft | 576 kts | 89° |
| 2026-05-08 00:00 | 37.21051 | 126.39496 | 31150 ft | 576 kts | 89° |
| 2026-05-08 00:01 | 37.21117 | 126.49554 | 31147 ft | 577 kts | 89° |
| 2026-05-08 00:01 | 37.21180 | 126.59612 | 31137 ft | 577 kts | 89° |
| 2026-05-08 00:02 | 37.21236 | 126.69676 | 31135 ft | 577 kts | 89° |
| 2026-05-08 00:02 | 37.21284 | 126.79750 | 31139 ft | 577 kts | 90° |
| 2026-05-08 00:03 | 37.21323 | 126.88121 | 31144 ft | 578 kts | 90° |
| 2026-05-08 00:03 | 37.21537 | 126.93130 | 31123 ft | 576 kts | 79° |
| 2026-05-08 00:03 | 37.22499 | 126.97978 | 31140 ft | 571 kts | 66° |
| 2026-05-08 00:04 | 37.26266 | 127.06622 | 31137 ft | 561 kts | 43° |
| 2026-05-08 00:04 | 37.31541 | 127.13777 | 31149 ft | 561 kts | 40° |
| 2026-05-08 00:05 | 37.36832 | 127.21036 | 31151 ft | 564 kts | 42° |
| 2026-05-08 00:05 | 37.42023 | 127.28410 | 31151 ft | 562 kts | 42° |
| 2026-05-08 00:06 | 37.46846 | 127.36170 | 31141 ft | 568 kts | 55° |
| 2026-05-08 00:06 | 37.50037 | 127.45320 | 31126 ft | 575 kts | 72° |
| 2026-05-08 00:07 | 37.51589 | 127.55190 | 31106 ft | 574 kts | 79° |
| 2026-05-08 00:07 | 37.53058 | 127.65064 | 31097 ft | 573 kts | 77° |
| 2026-05-08 00:08 | 37.54652 | 127.74906 | 31080 ft | 573 kts | 78° |
| 2026-05-08 00:08 | 37.56215 | 127.84759 | 31081 ft | 574 kts | 78° |
| 2026-05-08 00:09 | 37.57766 | 127.94660 | 31058 ft | 576 kts | 78° |
| 2026-05-08 00:09 | 37.59314 | 128.04581 | 31052 ft | 577 kts | 78° |
| 2026-05-08 00:10 | 37.60849 | 128.14453 | 31033 ft | 577 kts | 78° |
| 2026-05-08 00:10 | 37.62398 | 128.24450 | 31032 ft | 577 kts | 79° |
| 2026-05-08 00:11 | 37.63920 | 128.34291 | 31019 ft | 574 kts | 79° |
| 2026-05-08 00:11 | 37.65433 | 128.44164 | 31018 ft | 572 kts | 79° |
| 2026-05-08 00:12 | 37.66935 | 128.54011 | 31004 ft | 571 kts | 79° |
| 2026-05-08 00:12 | 37.68416 | 128.63858 | 31004 ft | 571 kts | 80° |
| 2026-05-08 00:13 | 37.68903 | 128.73755 | 31007 ft | 563 kts | 102° |
| 2026-05-08 00:13 | 37.68076 | 128.78563 | 31002 ft | 557 kts | 113° |
| 2026-05-08 00:13 | 37.66653 | 128.83072 | 30999 ft | 549 kts | 126° |
| 2026-05-08 00:14 | 37.62650 | 128.91170 | 30988 ft | 547 kts | 130° |
| 2026-05-08 00:14 | 37.58588 | 128.99358 | 30985 ft | 553 kts | 129° |
| 2026-05-08 00:15 | 37.54592 | 129.07652 | 30988 ft | 554 kts | 129° |
| 2026-05-08 00:15 | 37.50615 | 129.15940 | 30969 ft | 550 kts | 129° |
| 2026-05-08 00:16 | 37.46653 | 129.24142 | 30963 ft | 547 kts | 130° |
| 2026-05-08 00:16 | 37.42698 | 129.32297 | 30965 ft | 545 kts | 130° |
| 2026-05-08 00:17 | 37.38748 | 129.40444 | 30962 ft | 547 kts | 131° |
| 2026-05-08 00:17 | 37.34774 | 129.48625 | 30961 ft | 550 kts | 131° |
| 2026-05-08 00:18 | 37.30772 | 129.56847 | 30975 ft | 553 kts | 132° |
| 2026-05-08 00:18 | 37.26744 | 129.65104 | 30974 ft | 556 kts | 132° |
| 2026-05-08 00:19 | 37.22691 | 129.73394 | 30969 ft | 558 kts | 133° |
| 2026-05-08 00:19 | 37.18619 | 129.81705 | 30961 ft | 559 kts | 133° |
| 2026-05-08 00:20 | 37.14539 | 129.89995 | 30958 ft | 558 kts | 133° |
| 2026-05-08 00:20 | 37.10447 | 129.98260 | 30965 ft | 557 kts | 134° |
| 2026-05-08 00:21 | 37.06385 | 130.06445 | 30958 ft | 556 kts | 134° |
| 2026-05-08 00:21 | 37.02272 | 130.14719 | 30967 ft | 556 kts | 134° |
| 2026-05-08 00:22 | 36.98208 | 130.22875 | 30964 ft | 556 kts | 134° |
| 2026-05-08 00:22 | 36.94117 | 130.31065 | 30966 ft | 555 kts | 134° |
| 2026-05-08 00:23 | 36.90016 | 130.39256 | 30960 ft | 555 kts | 134° |
| 2026-05-08 00:23 | 36.85919 | 130.47421 | 30961 ft | 555 kts | 133° |
| 2026-05-08 00:24 | 36.81814 | 130.55581 | 30959 ft | 554 kts | 133° |
| 2026-05-08 00:24 | 36.77713 | 130.63716 | 30959 ft | 554 kts | 133° |
| 2026-05-08 00:25 | 36.73611 | 130.71829 | 30966 ft | 552 kts | 133° |
| 2026-05-08 00:25 | 36.69507 | 130.79921 | 30959 ft | 551 kts | 133° |
| 2026-05-08 00:26 | 36.65408 | 130.87986 | 30956 ft | 550 kts | 133° |
| 2026-05-08 00:26 | 36.61314 | 130.96023 | 30956 ft | 549 kts | 133° |
| 2026-05-08 00:27 | 36.57228 | 131.04028 | 30956 ft | 547 kts | 133° |
| 2026-05-08 00:27 | 36.53144 | 131.12009 | 30968 ft | 546 kts | 133° |
| 2026-05-08 00:28 | 36.49060 | 131.19970 | 30957 ft | 545 kts | 132° |
| 2026-05-08 00:28 | 36.44982 | 131.27905 | 30956 ft | 545 kts | 132° |
| 2026-05-08 00:29 | 36.40905 | 131.35827 | 30959 ft | 544 kts | 131° |
| 2026-05-08 00:29 | 36.39111 | 131.40015 | 30964 ft | 556 kts | 121° |
| 2026-05-08 00:29 | 36.37813 | 131.44582 | 30977 ft | 567 kts | 112° |
| 2026-05-08 00:30 | 36.36696 | 131.54355 | 30977 ft | 579 kts | 97° |
| 2026-05-08 00:30 | 36.36514 | 131.64354 | 30964 ft | 579 kts | 96° |
| 2026-05-08 00:31 | 36.36322 | 131.74258 | 30957 ft | 577 kts | 96° |
| 2026-05-08 00:31 | 36.36033 | 131.84187 | 30966 ft | 574 kts | 97° |
| 2026-05-08 00:32 | 36.35694 | 131.94071 | 30958 ft | 572 kts | 97° |
| 2026-05-08 00:32 | 36.35349 | 132.03924 | 30960 ft | 571 kts | 97° |
| 2026-05-08 00:33 | 36.35004 | 132.13755 | 30960 ft | 570 kts | 97° |
| 2026-05-08 00:33 | 36.34656 | 132.23572 | 30960 ft | 569 kts | 98° |
| 2026-05-08 00:34 | 36.34300 | 132.33384 | 30956 ft | 569 kts | 98° |
| 2026-05-08 00:34 | 36.33936 | 132.43170 | 30971 ft | 568 kts | 98° |
| 2026-05-08 00:35 | 36.33564 | 132.52958 | 30944 ft | 568 kts | 98° |
| 2026-05-08 00:35 | 36.33184 | 132.62737 | 30955 ft | 567 kts | 98° |
| 2026-05-08 00:36 | 36.32797 | 132.72504 | 30948 ft | 566 kts | 98° |
| 2026-05-08 00:36 | 36.32403 | 132.82255 | 30947 ft | 565 kts | 98° |
| 2026-05-08 00:37 | 36.32002 | 132.91978 | 30938 ft | 564 kts | 98° |
| 2026-05-08 00:38 | 36.31390 | 133.06463 | 30943 ft | 563 kts | 98° |
| 2026-05-08 00:38 | 36.30970 | 133.16142 | 30944 ft | 562 kts | 98° |
| 2026-05-08 00:39 | 36.30545 | 133.25805 | 30947 ft | 562 kts | 98° |
| 2026-05-08 00:39 | 36.30108 | 133.35477 | 30942 ft | 561 kts | 98° |
| 2026-05-08 00:40 | 36.29667 | 133.45137 | 30941 ft | 561 kts | 98° |
| 2026-05-08 00:40 | 36.29219 | 133.54788 | 30938 ft | 561 kts | 99° |
| 2026-05-08 00:41 | 36.28763 | 133.64430 | 30946 ft | 560 kts | 99° |
| 2026-05-08 00:41 | 36.28299 | 133.74069 | 30935 ft | 560 kts | 99° |
| 2026-05-08 00:42 | 36.27819 | 133.83693 | 30934 ft | 559 kts | 99° |
| 2026-05-08 00:42 | 36.27318 | 133.93299 | 30934 ft | 559 kts | 99° |
| 2026-05-08 00:43 | 36.26813 | 134.02900 | 30928 ft | 558 kts | 99° |
| 2026-05-08 00:43 | 36.26306 | 134.12498 | 30932 ft | 558 kts | 99° |
| 2026-05-08 00:44 | 36.25807 | 134.22090 | 30928 ft | 557 kts | 99° |
| 2026-05-08 00:44 | 36.25305 | 134.31667 | 30926 ft | 557 kts | 99° |
| 2026-05-08 00:45 | 36.24798 | 134.41176 | 30923 ft | 556 kts | 98° |
| 2026-05-08 00:45 | 36.25354 | 134.50803 | 30925 ft | 567 kts | 81° |
| 2026-05-08 00:46 | 36.27923 | 134.60044 | 30930 ft | 571 kts | 64° |
| 2026-05-08 00:46 | 36.31529 | 134.68818 | 30922 ft | 572 kts | 63° |
| 2026-05-08 00:47 | 36.35148 | 134.77598 | 30922 ft | 572 kts | 64° |
| 2026-05-08 00:47 | 36.38687 | 134.86431 | 30921 ft | 572 kts | 65° |
| 2026-05-08 00:48 | 36.42179 | 134.95295 | 30922 ft | 571 kts | 65° |
| 2026-05-08 00:48 | 36.45659 | 135.04160 | 30917 ft | 571 kts | 65° |
| 2026-05-08 00:48 | 36.47402 | 135.08601 | 31036 ft | 573 kts | 65° |
| 2026-05-08 00:49 | 36.49146 | 135.13044 | 31410 ft | 570 kts | 65° |
| 2026-05-08 00:49 | 36.50878 | 135.17461 | 31829 ft | 567 kts | 65° |
| 2026-05-08 00:49 | 36.52604 | 135.21865 | 32218 ft | 565 kts | 65° |
| 2026-05-08 00:49 | 36.54319 | 135.26251 | 32547 ft | 564 kts | 65° |
| 2026-05-08 00:50 | 36.55455 | 135.29158 | 32719 ft | 564 kts | 65° |
| 2026-05-08 00:50 | 36.59472 | 135.39468 | 32813 ft | 566 kts | 65° |
| 2026-05-08 00:51 | 36.62315 | 135.46783 | 32803 ft | 564 kts | 65° |
| 2026-05-08 00:51 | 36.65715 | 135.55553 | 32804 ft | 561 kts | 65° |
| 2026-05-08 00:52 | 36.69098 | 135.64303 | 32807 ft | 560 kts | 65° |
| 2026-05-08 00:52 | 36.72475 | 135.73064 | 32806 ft | 560 kts | 66° |
| 2026-05-08 00:53 | 36.75844 | 135.81828 | 32810 ft | 561 kts | 66° |
| 2026-05-08 00:53 | 36.79214 | 135.90620 | 32810 ft | 562 kts | 66° |
| 2026-05-08 00:54 | 36.82582 | 135.99429 | 32804 ft | 563 kts | 66° |
| 2026-05-08 00:54 | 36.85946 | 136.08254 | 32805 ft | 563 kts | 66° |
| 2026-05-08 00:55 | 36.89307 | 136.17095 | 32807 ft | 563 kts | 66° |
| 2026-05-08 00:55 | 36.92659 | 136.25940 | 32805 ft | 563 kts | 66° |
| 2026-05-08 00:56 | 36.95999 | 136.34776 | 32804 ft | 562 kts | 66° |
| 2026-05-08 00:56 | 36.99305 | 136.43548 | 32803 ft | 561 kts | 67° |
| 2026-05-08 00:57 | 37.02625 | 136.52382 | 32809 ft | 560 kts | 67° |
| 2026-05-08 00:57 | 37.05932 | 136.61207 | 32813 ft | 560 kts | 67° |
| 2026-05-08 00:58 | 37.09231 | 136.70032 | 32814 ft | 559 kts | 67° |
| 2026-05-08 00:58 | 37.12519 | 136.78859 | 32813 ft | 559 kts | 67° |
| 2026-05-08 00:59 | 37.15802 | 136.87704 | 32819 ft | 559 kts | 67° |
| 2026-05-08 00:59 | 37.19076 | 136.96549 | 32838 ft | 559 kts | 68° |
| 2026-05-08 01:00 | 37.22334 | 137.05379 | 32825 ft | 559 kts | 68° |
| 2026-05-08 01:00 | 37.25600 | 137.14255 | 32826 ft | 559 kts | 68° |
| 2026-05-08 01:01 | 37.28854 | 137.23121 | 32819 ft | 559 kts | 68° |
| 2026-05-08 01:01 | 37.32103 | 137.32002 | 32812 ft | 559 kts | 68° |
| 2026-05-08 01:02 | 37.35343 | 137.40885 | 32804 ft | 559 kts | 68° |
| 2026-05-08 01:02 | 37.38572 | 137.49763 | 32797 ft | 558 kts | 68° |
| 2026-05-08 01:03 | 37.41791 | 137.58638 | 32794 ft | 557 kts | 68° |
| 2026-05-08 01:03 | 37.44995 | 137.67499 | 32814 ft | 556 kts | 68° |
| 2026-05-08 01:04 | 37.48171 | 137.76306 | 32810 ft | 555 kts | 68° |
| 2026-05-08 01:04 | 37.51349 | 137.85147 | 32808 ft | 554 kts | 68° |
| 2026-05-08 01:05 | 37.54523 | 137.94001 | 32815 ft | 554 kts | 68° |
| 2026-05-08 01:05 | 37.57690 | 138.02864 | 32809 ft | 555 kts | 68° |
| 2026-05-08 01:06 | 37.60855 | 138.11746 | 32802 ft | 555 kts | 68° |
| 2026-05-08 01:06 | 37.64017 | 138.20648 | 32812 ft | 556 kts | 68° |
| 2026-05-08 01:07 | 37.67174 | 138.29560 | 32808 ft | 557 kts | 68° |
| 2026-05-08 01:07 | 37.70333 | 138.38503 | 32816 ft | 558 kts | 68° |
| 2026-05-08 01:08 | 37.73492 | 138.47465 | 32810 ft | 558 kts | 68° |
| 2026-05-08 01:08 | 37.76644 | 138.56425 | 32804 ft | 558 kts | 68° |
| 2026-05-08 01:09 | 37.79788 | 138.65392 | 32807 ft | 557 kts | 69° |
| 2026-05-08 01:09 | 37.82920 | 138.74354 | 32807 ft | 557 kts | 69° |
| 2026-05-08 01:10 | 37.86018 | 138.83243 | 32804 ft | 555 kts | 69° |
| 2026-05-08 01:10 | 37.89124 | 138.92186 | 32805 ft | 554 kts | 69° |
| 2026-05-08 01:11 | 37.92217 | 139.01116 | 32803 ft | 553 kts | 69° |
| 2026-05-08 01:11 | 37.95084 | 139.10129 | 32805 ft | 549 kts | 76° |
| 2026-05-08 01:12 | 37.96788 | 139.19491 | 32804 ft | 543 kts | 87° |
| 2026-05-08 01:12 | 37.97729 | 139.28980 | 32800 ft | 543 kts | 88° |
| 2026-05-08 01:13 | 37.98677 | 139.38482 | 32815 ft | 544 kts | 87° |
| 2026-05-08 01:13 | 37.99676 | 139.48023 | 32825 ft | 546 kts | 86° |
| 2026-05-08 01:14 | 38.00684 | 139.57582 | 32833 ft | 547 kts | 87° |
| 2026-05-08 01:14 | 38.01679 | 139.67162 | 32826 ft | 548 kts | 87° |
| 2026-05-08 01:15 | 38.02669 | 139.76749 | 32824 ft | 549 kts | 87° |
| 2026-05-08 01:15 | 38.03648 | 139.86354 | 32832 ft | 549 kts | 87° |
| 2026-05-08 01:16 | 38.04610 | 139.95888 | 32830 ft | 548 kts | 87° |
| 2026-05-08 01:16 | 38.05578 | 140.05531 | 32826 ft | 547 kts | 87° |
| 2026-05-08 01:17 | 38.06525 | 140.15041 | 32826 ft | 546 kts | 87° |
| 2026-05-08 01:17 | 38.07467 | 140.24592 | 32830 ft | 546 kts | 88° |
| 2026-05-08 01:18 | 38.08402 | 140.34153 | 32812 ft | 545 kts | 87° |
| 2026-05-08 01:18 | 38.09328 | 140.43692 | 32823 ft | 544 kts | 87° |
| 2026-05-08 01:19 | 38.10245 | 140.53232 | 32796 ft | 545 kts | 87° |
| 2026-05-08 01:19 | 38.11155 | 140.62779 | 32799 ft | 544 kts | 87° |
| 2026-05-08 01:20 | 38.12056 | 140.72324 | 32810 ft | 544 kts | 87° |
| 2026-05-08 01:20 | 38.12952 | 140.81868 | 32789 ft | 545 kts | 88° |
| 2026-05-08 01:21 | 38.13593 | 140.91420 | 32799 ft | 540 kts | 95° |
| 2026-05-08 01:21 | 38.13039 | 141.00848 | 32801 ft | 532 kts | 104° |
| 2026-05-08 01:22 | 38.11917 | 141.10125 | 32803 ft | 532 kts | 104° |
| 2026-05-08 01:22 | 38.10811 | 141.19418 | 32807 ft | 532 kts | 104° |
| 2026-05-08 01:23 | 38.09740 | 141.28717 | 32809 ft | 533 kts | 104° |
| 2026-05-08 01:23 | 38.08674 | 141.38030 | 32812 ft | 533 kts | 104° |
| 2026-05-08 01:24 | 38.07599 | 141.47337 | 32819 ft | 533 kts | 104° |
| 2026-05-08 01:24 | 38.06513 | 141.56639 | 32816 ft | 533 kts | 104° |
| 2026-05-08 01:25 | 38.05420 | 141.65938 | 32816 ft | 533 kts | 104° |
| 2026-05-08 01:25 | 38.04318 | 141.75241 | 32815 ft | 533 kts | 104° |
| 2026-05-08 01:26 | 38.03211 | 141.84536 | 32821 ft | 533 kts | 104° |
| 2026-05-08 01:26 | 38.02097 | 141.93817 | 32823 ft | 532 kts | 104° |
| 2026-05-08 01:27 | 38.00977 | 142.03094 | 32826 ft | 532 kts | 104° |
| 2026-05-08 01:27 | 37.99848 | 142.12359 | 32825 ft | 531 kts | 104° |
| 2026-05-08 01:28 | 37.98715 | 142.21551 | 32825 ft | 531 kts | 104° |
| 2026-05-08 01:28 | 37.97561 | 142.30858 | 32826 ft | 531 kts | 104° |
| 2026-05-08 01:29 | 37.96418 | 142.40033 | 32826 ft | 530 kts | 104° |
| 2026-05-08 01:29 | 37.95260 | 142.49260 | 32825 ft | 530 kts | 104° |
| 2026-05-08 01:30 | 37.94095 | 142.58487 | 32825 ft | 530 kts | 104° |
| 2026-05-08 01:30 | 37.92923 | 142.67709 | 32825 ft | 530 kts | 104° |
| 2026-05-08 01:31 | 37.91746 | 142.76917 | 32826 ft | 530 kts | 104° |
| 2026-05-08 01:31 | 37.90560 | 142.86127 | 32827 ft | 529 kts | 104° |
| 2026-05-08 01:32 | 37.89370 | 142.95318 | 32826 ft | 529 kts | 104° |
| 2026-05-08 01:32 | 37.88171 | 143.04510 | 32818 ft | 529 kts | 104° |
| 2026-05-08 01:33 | 37.86968 | 143.13691 | 32826 ft | 529 kts | 104° |
| 2026-05-08 01:33 | 37.85759 | 143.22858 | 32829 ft | 528 kts | 104° |
| 2026-05-08 01:34 | 37.84541 | 143.32032 | 32828 ft | 528 kts | 104° |
| 2026-05-08 01:34 | 37.83320 | 143.41187 | 32823 ft | 528 kts | 104° |
| 2026-05-08 01:35 | 37.82093 | 143.50334 | 32823 ft | 527 kts | 104° |
| 2026-05-08 01:35 | 37.80263 | 143.59225 | 32823 ft | 519 kts | 114° |
| 2026-05-08 01:36 | 37.77812 | 143.67737 | 32823 ft | 519 kts | 115° |
| 2026-05-08 01:36 | 37.75336 | 143.76301 | 32839 ft | 519 kts | 115° |
| 2026-05-08 01:37 | 37.72893 | 143.84879 | 32834 ft | 519 kts | 114° |
| 2026-05-08 01:37 | 37.70462 | 143.93463 | 32825 ft | 519 kts | 114° |
| 2026-05-08 01:38 | 37.68029 | 144.02030 | 32829 ft | 518 kts | 115° |
| 2026-05-08 01:38 | 37.65984 | 144.09204 | 32829 ft | 518 kts | 115° |
| 2026-05-08 01:39 | 37.63557 | 144.17687 | 32830 ft | 518 kts | 115° |
| 2026-05-08 01:39 | 37.61107 | 144.26222 | 32829 ft | 517 kts | 115° |
| 2026-05-08 01:40 | 37.58654 | 144.34741 | 32828 ft | 517 kts | 115° |
| 2026-05-08 01:40 | 37.56197 | 144.43248 | 32830 ft | 516 kts | 115° |
| 2026-05-08 01:41 | 37.53736 | 144.51743 | 32834 ft | 516 kts | 115° |
| 2026-05-08 01:41 | 37.51271 | 144.60224 | 32829 ft | 515 kts | 115° |
| 2026-05-08 01:42 | 37.48802 | 144.68691 | 32832 ft | 515 kts | 115° |
| 2026-05-08 01:42 | 37.46329 | 144.77145 | 32835 ft | 515 kts | 115° |
| 2026-05-08 01:43 | 37.43851 | 144.85593 | 32838 ft | 515 kts | 115° |
| 2026-05-08 01:43 | 37.41362 | 144.94050 | 32841 ft | 515 kts | 115° |
| 2026-05-08 01:44 | 37.38870 | 145.02492 | 32840 ft | 515 kts | 115° |
| 2026-05-08 01:44 | 37.36372 | 145.10930 | 32846 ft | 515 kts | 115° |
| 2026-05-08 01:45 | 37.33869 | 145.19357 | 32844 ft | 515 kts | 116° |
| 2026-05-08 01:45 | 37.31358 | 145.27788 | 32850 ft | 515 kts | 116° |
| 2026-05-08 01:46 | 37.28841 | 145.36212 | 32850 ft | 515 kts | 115° |
| 2026-05-08 01:46 | 37.26315 | 145.44640 | 32851 ft | 516 kts | 115° |
| 2026-05-08 01:47 | 37.23784 | 145.53065 | 32856 ft | 516 kts | 115° |
| 2026-05-08 01:47 | 37.21337 | 145.61464 | 32846 ft | 518 kts | 109° |
| 2026-05-08 01:48 | 37.20743 | 145.70535 | 32866 ft | 530 kts | 87° |
| 2026-05-08 01:48 | 37.21411 | 145.75100 | 32848 ft | 533 kts | 76° |
| 2026-05-08 01:48 | 37.23547 | 145.84009 | 32869 ft | 535 kts | 75° |
| 2026-05-08 01:49 | 37.25709 | 145.92948 | 32871 ft | 535 kts | 75° |
| 2026-05-08 01:49 | 37.27796 | 146.01922 | 32863 ft | 535 kts | 76° |
| 2026-05-08 01:50 | 37.29832 | 146.10903 | 32870 ft | 534 kts | 76° |
| 2026-05-08 01:50 | 37.31848 | 146.19865 | 32868 ft | 532 kts | 76° |
| 2026-05-08 01:51 | 37.33855 | 146.28797 | 32869 ft | 530 kts | 76° |
| 2026-05-08 01:51 | 37.35853 | 146.37710 | 32865 ft | 529 kts | 76° |
| 2026-05-08 01:52 | 37.37839 | 146.46596 | 32873 ft | 527 kts | 76° |
| 2026-05-08 01:52 | 37.39812 | 146.55465 | 32878 ft | 526 kts | 77° |
| 2026-05-08 01:53 | 37.41778 | 146.64333 | 32880 ft | 526 kts | 77° |
| 2026-05-08 01:53 | 37.43734 | 146.73196 | 32882 ft | 526 kts | 77° |
| 2026-05-08 01:54 | 37.45684 | 146.82064 | 32874 ft | 525 kts | 77° |
| 2026-05-08 01:54 | 37.47625 | 146.90924 | 32876 ft | 525 kts | 77° |
| 2026-05-08 01:55 | 37.49558 | 146.99785 | 32881 ft | 525 kts | 77° |
| 2026-05-08 01:55 | 37.51471 | 147.08586 | 32885 ft | 524 kts | 77° |
| 2026-05-08 01:56 | 37.53387 | 147.17437 | 32884 ft | 524 kts | 76° |
| 2026-05-08 01:56 | 37.55297 | 147.26295 | 32883 ft | 523 kts | 76° |
| 2026-05-08 01:57 | 37.57199 | 147.35150 | 32884 ft | 523 kts | 76° |
| 2026-05-08 01:57 | 37.59095 | 147.44015 | 32889 ft | 524 kts | 76° |
| 2026-05-08 01:58 | 37.60985 | 147.52887 | 32890 ft | 525 kts | 77° |
| 2026-05-08 01:58 | 37.62875 | 147.61791 | 32890 ft | 525 kts | 77° |
| 2026-05-08 01:59 | 37.64759 | 147.70707 | 32892 ft | 526 kts | 77° |
| 2026-05-08 01:59 | 37.66638 | 147.79635 | 32897 ft | 527 kts | 77° |
| 2026-05-08 02:00 | 37.68512 | 147.88575 | 32896 ft | 527 kts | 77° |
| 2026-05-08 02:00 | 37.70378 | 147.97514 | 32894 ft | 527 kts | 77° |
| 2026-05-08 02:01 | 37.72240 | 148.06469 | 32899 ft | 527 kts | 77° |
| 2026-05-08 02:01 | 37.74093 | 148.15419 | 32896 ft | 527 kts | 77° |
| 2026-05-08 02:02 | 37.75952 | 148.24436 | 32900 ft | 527 kts | 77° |
| 2026-05-08 02:02 | 37.77781 | 148.33342 | 32900 ft | 527 kts | 77° |
| 2026-05-08 02:03 | 37.79618 | 148.42328 | 32900 ft | 527 kts | 77° |
| 2026-05-08 02:03 | 37.81447 | 148.51313 | 32896 ft | 528 kts | 77° |
| 2026-05-08 02:04 | 37.83271 | 148.60311 | 32905 ft | 528 kts | 77° |
| 2026-05-08 02:04 | 37.85092 | 148.69333 | 32910 ft | 530 kts | 77° |
| 2026-05-08 02:05 | 37.86911 | 148.78381 | 32909 ft | 532 kts | 77° |
| 2026-05-08 02:05 | 37.88729 | 148.87461 | 32906 ft | 532 kts | 77° |
| 2026-05-08 02:06 | 37.90537 | 148.96537 | 32909 ft | 531 kts | 77° |
| 2026-05-08 02:06 | 37.92336 | 149.05601 | 32904 ft | 530 kts | 77° |
| 2026-05-08 02:07 | 37.94120 | 149.14635 | 32906 ft | 528 kts | 77° |
| 2026-05-08 02:07 | 37.95891 | 149.23637 | 32907 ft | 526 kts | 77° |
| 2026-05-08 02:08 | 37.97650 | 149.32619 | 32915 ft | 524 kts | 77° |
| 2026-05-08 02:08 | 37.99400 | 149.41594 | 32915 ft | 524 kts | 77° |
| 2026-05-08 02:09 | 38.01138 | 149.50549 | 32914 ft | 523 kts | 77° |
| 2026-05-08 02:09 | 38.02872 | 149.59518 | 32920 ft | 524 kts | 77° |
| 2026-05-08 02:10 | 38.04601 | 149.68505 | 32918 ft | 525 kts | 77° |
| 2026-05-08 02:10 | 38.06313 | 149.77445 | 32923 ft | 526 kts | 77° |
| 2026-05-08 02:11 | 38.08048 | 149.86540 | 32921 ft | 527 kts | 77° |
| 2026-05-08 02:11 | 38.09755 | 149.95528 | 32919 ft | 528 kts | 77° |
| 2026-05-08 02:12 | 38.11298 | 150.04661 | 32906 ft | 531 kts | 81° |
| 2026-05-08 02:12 | 38.12519 | 150.13958 | 32905 ft | 532 kts | 82° |
| 2026-05-08 02:13 | 38.13688 | 150.23177 | 32909 ft | 526 kts | 82° |
| 2026-05-08 02:13 | 38.14863 | 150.32304 | 32923 ft | 522 kts | 82° |
| 2026-05-08 02:14 | 38.16046 | 150.41410 | 32906 ft | 523 kts | 82° |
| 2026-05-08 02:14 | 38.17226 | 150.50515 | 32922 ft | 522 kts | 82° |
| 2026-05-08 02:15 | 38.18398 | 150.59627 | 32918 ft | 522 kts | 82° |
| 2026-05-08 02:15 | 38.19568 | 150.68784 | 32925 ft | 529 kts | 82° |
| 2026-05-08 02:16 | 38.20736 | 150.77987 | 32904 ft | 524 kts | 82° |
| 2026-05-08 02:16 | 38.21881 | 150.87062 | 32894 ft | 515 kts | 82° |
| 2026-05-08 02:17 | 38.23002 | 150.96004 | 32913 ft | 515 kts | 82° |
| 2026-05-08 02:17 | 38.24123 | 151.05019 | 32926 ft | 518 kts | 82° |
| 2026-05-08 02:18 | 38.25245 | 151.14099 | 32927 ft | 521 kts | 82° |
| 2026-05-08 02:18 | 38.26367 | 151.23236 | 32930 ft | 524 kts | 82° |
| 2026-05-08 02:19 | 38.27490 | 151.32430 | 32927 ft | 527 kts | 83° |
| 2026-05-08 02:19 | 38.28608 | 151.41652 | 32932 ft | 528 kts | 83° |
| 2026-05-08 02:20 | 38.29721 | 151.50894 | 32930 ft | 528 kts | 83° |
| 2026-05-08 02:20 | 38.30827 | 151.60143 | 32931 ft | 528 kts | 83° |
| 2026-05-08 02:21 | 38.31925 | 151.69388 | 32932 ft | 528 kts | 83° |
| 2026-05-08 02:21 | 38.33016 | 151.78638 | 32933 ft | 528 kts | 83° |
| 2026-05-08 02:22 | 38.34101 | 151.87902 | 32938 ft | 529 kts | 83° |
| 2026-05-08 02:22 | 38.35179 | 151.97170 | 32944 ft | 529 kts | 83° |
| 2026-05-08 02:23 | 38.36250 | 152.06454 | 32944 ft | 530 kts | 83° |
| 2026-05-08 02:23 | 38.37138 | 152.14189 | 32946 ft | 531 kts | 84° |
| 2026-05-08 02:24 | 38.38200 | 152.23512 | 32949 ft | 532 kts | 84° |
| 2026-05-08 02:24 | 38.39257 | 152.32854 | 32945 ft | 533 kts | 84° |
| 2026-05-08 02:25 | 38.40309 | 152.42217 | 32949 ft | 534 kts | 84° |
| 2026-05-08 02:25 | 38.41354 | 152.51590 | 32948 ft | 535 kts | 84° |
| 2026-05-08 02:26 | 38.42393 | 152.60985 | 32954 ft | 535 kts | 84° |
| 2026-05-08 02:26 | 38.43420 | 152.70333 | 32951 ft | 536 kts | 84° |
| 2026-05-08 02:27 | 38.44447 | 152.79756 | 32958 ft | 537 kts | 84° |
| 2026-05-08 02:27 | 38.45468 | 152.89193 | 32962 ft | 537 kts | 84° |
| 2026-05-08 02:28 | 38.46482 | 152.98643 | 32956 ft | 538 kts | 84° |
| 2026-05-08 02:28 | 38.47490 | 153.08108 | 32959 ft | 539 kts | 84° |
| 2026-05-08 02:29 | 38.48492 | 153.17593 | 32968 ft | 540 kts | 84° |
| 2026-05-08 02:29 | 38.49489 | 153.27101 | 32971 ft | 541 kts | 84° |
| 2026-05-08 02:30 | 38.50478 | 153.36614 | 32973 ft | 541 kts | 84° |
| 2026-05-08 02:30 | 38.51462 | 153.46156 | 32978 ft | 542 kts | 84° |
| 2026-05-08 02:31 | 38.52440 | 153.55710 | 32981 ft | 543 kts | 84° |
| 2026-05-08 02:31 | 38.53411 | 153.65272 | 32981 ft | 543 kts | 84° |
| 2026-05-08 02:32 | 38.54374 | 153.74841 | 32978 ft | 543 kts | 85° |
| 2026-05-08 02:32 | 38.55329 | 153.84416 | 32987 ft | 544 kts | 85° |
| 2026-05-08 02:33 | 38.56278 | 153.94007 | 32986 ft | 544 kts | 85° |
| 2026-05-08 02:33 | 38.57214 | 154.03546 | 33000 ft | 545 kts | 85° |
| 2026-05-08 02:34 | 38.58149 | 154.13163 | 32988 ft | 545 kts | 85° |
| 2026-05-08 02:34 | 38.59077 | 154.22786 | 32985 ft | 546 kts | 85° |
| 2026-05-08 02:35 | 38.59998 | 154.32414 | 32998 ft | 546 kts | 85° |
| 2026-05-08 02:35 | 38.60910 | 154.42048 | 33001 ft | 546 kts | 85° |
| 2026-05-08 02:36 | 38.61814 | 154.51671 | 33002 ft | 545 kts | 85° |
| 2026-05-08 02:36 | 38.62710 | 154.61300 | 33008 ft | 545 kts | 85° |
| 2026-05-08 02:37 | 38.63597 | 154.70922 | 33009 ft | 545 kts | 85° |
| 2026-05-08 02:37 | 38.64476 | 154.80543 | 33007 ft | 544 kts | 85° |
| 2026-05-08 02:38 | 38.65347 | 154.90168 | 33013 ft | 544 kts | 85° |
| 2026-05-08 02:38 | 38.66211 | 154.99793 | 33010 ft | 545 kts | 85° |
| 2026-05-08 02:39 | 38.67067 | 155.09430 | 33017 ft | 545 kts | 85° |
| 2026-05-08 02:39 | 38.67910 | 155.19007 | 33020 ft | 545 kts | 85° |
| 2026-05-08 02:40 | 38.68750 | 155.28647 | 33018 ft | 545 kts | 85° |
| 2026-05-08 02:40 | 38.69583 | 155.38300 | 33022 ft | 545 kts | 85° |
| 2026-05-08 02:41 | 38.70408 | 155.47944 | 33023 ft | 545 kts | 85° |
| 2026-05-08 02:41 | 38.71224 | 155.57590 | 33023 ft | 544 kts | 85° |
| 2026-05-08 02:42 | 38.72032 | 155.67231 | 33027 ft | 543 kts | 85° |
| 2026-05-08 02:42 | 38.72830 | 155.76843 | 33030 ft | 542 kts | 85° |
| 2026-05-08 02:43 | 38.73618 | 155.86445 | 33033 ft | 542 kts | 85° |
| 2026-05-08 02:43 | 38.74399 | 155.96048 | 33037 ft | 542 kts | 85° |
| 2026-05-08 02:44 | 38.75167 | 156.05590 | 33033 ft | 543 kts | 85° |
| 2026-05-08 02:44 | 38.75933 | 156.15221 | 33041 ft | 543 kts | 85° |
| 2026-05-08 02:45 | 38.76692 | 156.24850 | 33040 ft | 544 kts | 85° |
| 2026-05-08 02:45 | 38.77444 | 156.34503 | 33041 ft | 545 kts | 85° |
| 2026-05-08 02:46 | 38.78190 | 156.44176 | 33043 ft | 546 kts | 85° |
| 2026-05-08 02:46 | 38.78929 | 156.53860 | 33047 ft | 547 kts | 85° |
| 2026-05-08 02:47 | 38.79660 | 156.63560 | 33047 ft | 547 kts | 85° |
| 2026-05-08 02:47 | 38.80385 | 156.73272 | 33050 ft | 547 kts | 85° |
| 2026-05-08 02:48 | 38.81101 | 156.82981 | 33054 ft | 547 kts | 85° |
| 2026-05-08 02:48 | 38.81808 | 156.92688 | 33055 ft | 546 kts | 85° |
| 2026-05-08 02:49 | 38.82507 | 157.02380 | 33058 ft | 546 kts | 85° |
| 2026-05-08 02:49 | 38.83196 | 157.12060 | 33058 ft | 545 kts | 85° |
| 2026-05-08 02:50 | 38.83877 | 157.21739 | 33061 ft | 544 kts | 85° |
| 2026-05-08 02:50 | 38.84549 | 157.31403 | 33061 ft | 544 kts | 85° |
| 2026-05-08 02:51 | 38.85213 | 157.41073 | 33065 ft | 544 kts | 85° |
| 2026-05-08 02:51 | 38.85870 | 157.50743 | 33064 ft | 544 kts | 85° |
| 2026-05-08 02:52 | 38.86518 | 157.60423 | 33068 ft | 545 kts | 85° |
| 2026-05-08 02:52 | 38.87161 | 157.70124 | 33070 ft | 545 kts | 85° |
| 2026-05-08 02:53 | 38.87794 | 157.79819 | 33076 ft | 546 kts | 86° |
| 2026-05-08 02:53 | 38.88420 | 157.89526 | 33075 ft | 546 kts | 86° |
| 2026-05-08 02:54 | 38.89039 | 157.99245 | 33075 ft | 546 kts | 86° |
| 2026-05-08 02:54 | 38.89650 | 158.08967 | 33075 ft | 546 kts | 86° |
| 2026-05-08 02:55 | 38.90547 | 158.23484 | 33080 ft | 546 kts | 86° |
| 2026-05-08 02:56 | 38.91138 | 158.33212 | 33083 ft | 546 kts | 86° |
| 2026-05-08 02:56 | 38.91720 | 158.42938 | 33081 ft | 546 kts | 86° |
| 2026-05-08 02:57 | 38.92295 | 158.52663 | 33091 ft | 546 kts | 86° |
| 2026-05-08 02:57 | 38.92862 | 158.62398 | 33086 ft | 546 kts | 86° |
| 2026-05-08 02:58 | 38.93420 | 158.72125 | 33087 ft | 546 kts | 86° |
| 2026-05-08 02:58 | 38.93970 | 158.81863 | 33087 ft | 547 kts | 86° |
| 2026-05-08 02:59 | 38.94513 | 158.91600 | 33088 ft | 547 kts | 86° |
| 2026-05-08 02:59 | 38.95048 | 159.01352 | 33093 ft | 547 kts | 86° |
| 2026-05-08 03:00 | 38.95574 | 159.11100 | 33091 ft | 547 kts | 86° |
| 2026-05-08 03:00 | 38.96093 | 159.20857 | 33093 ft | 547 kts | 86° |
| 2026-05-08 03:01 | 38.96604 | 159.30614 | 33096 ft | 548 kts | 86° |
| 2026-05-08 03:01 | 38.97104 | 159.40314 | 33096 ft | 548 kts | 86° |
| 2026-05-08 03:02 | 38.97599 | 159.50084 | 33097 ft | 548 kts | 86° |
| 2026-05-08 03:02 | 38.98085 | 159.59848 | 33097 ft | 548 kts | 86° |
| 2026-05-08 03:03 | 38.98568 | 159.69696 | 33097 ft | 548 kts | 86° |
| 2026-05-08 03:03 | 38.99035 | 159.79411 | 33098 ft | 548 kts | 86° |
| 2026-05-08 03:04 | 38.99499 | 159.89203 | 33095 ft | 548 kts | 86° |
| 2026-05-08 03:04 | 38.99954 | 159.98986 | 33101 ft | 548 kts | 86° |
| 2026-05-08 03:05 | 39.00384 | 160.08771 | 33107 ft | 548 kts | 86° |
| 2026-05-08 03:05 | 39.00785 | 160.18562 | 33102 ft | 548 kts | 86° |
| 2026-05-08 03:06 | 39.01178 | 160.28349 | 33102 ft | 548 kts | 86° |
| 2026-05-08 03:06 | 39.01567 | 160.38129 | 33098 ft | 547 kts | 86° |
| 2026-05-08 03:07 | 39.01950 | 160.47900 | 33101 ft | 547 kts | 86° |
| 2026-05-08 03:07 | 39.02324 | 160.57670 | 33102 ft | 547 kts | 86° |
| 2026-05-08 03:08 | 39.02690 | 160.67447 | 33101 ft | 547 kts | 86° |
| 2026-05-08 03:08 | 39.03048 | 160.77225 | 33100 ft | 547 kts | 86° |
| 2026-05-08 03:09 | 39.03397 | 160.87007 | 33100 ft | 548 kts | 86° |
| 2026-05-08 03:09 | 39.03739 | 160.96793 | 33107 ft | 548 kts | 86° |
| 2026-05-08 03:10 | 39.04073 | 161.06591 | 33098 ft | 548 kts | 86° |
| 2026-05-08 03:10 | 39.04396 | 161.16325 | 33102 ft | 548 kts | 86° |
| 2026-05-08 03:11 | 39.04713 | 161.26114 | 33107 ft | 548 kts | 86° |
| 2026-05-08 03:11 | 39.05022 | 161.35909 | 33103 ft | 548 kts | 86° |
| 2026-05-08 03:12 | 39.05323 | 161.45695 | 33100 ft | 547 kts | 86° |
| 2026-05-08 03:12 | 39.05615 | 161.55469 | 33105 ft | 546 kts | 87° |
| 2026-05-08 03:13 | 39.05898 | 161.65226 | 33103 ft | 546 kts | 87° |
| 2026-05-08 03:13 | 39.06173 | 161.74981 | 33104 ft | 545 kts | 87° |
| 2026-05-08 03:14 | 39.06440 | 161.84721 | 33112 ft | 545 kts | 87° |
| 2026-05-08 03:14 | 39.06655 | 161.92815 | 33109 ft | 544 kts | 87° |
| 2026-05-08 03:15 | 39.06907 | 162.02553 | 33107 ft | 544 kts | 87° |
| 2026-05-08 03:15 | 39.07150 | 162.12283 | 33107 ft | 544 kts | 87° |
| 2026-05-08 03:16 | 39.07385 | 162.22014 | 33106 ft | 544 kts | 87° |
| 2026-05-08 03:16 | 39.07612 | 162.31751 | 33103 ft | 545 kts | 87° |
| 2026-05-08 03:17 | 39.07832 | 162.41498 | 33109 ft | 545 kts | 87° |
| 2026-05-08 03:17 | 39.08043 | 162.51240 | 33112 ft | 545 kts | 87° |
| 2026-05-08 03:18 | 39.08246 | 162.60999 | 33112 ft | 545 kts | 87° |
| 2026-05-08 03:18 | 39.08442 | 162.70753 | 33109 ft | 545 kts | 87° |
| 2026-05-08 03:19 | 39.08628 | 162.80507 | 33115 ft | 545 kts | 87° |
| 2026-05-08 03:19 | 39.08808 | 162.90271 | 33111 ft | 545 kts | 87° |
| 2026-05-08 03:20 | 39.08977 | 162.99955 | 33111 ft | 545 kts | 87° |
| 2026-05-08 03:20 | 39.09141 | 163.09768 | 33113 ft | 545 kts | 87° |
| 2026-05-08 03:21 | 39.09295 | 163.19511 | 33111 ft | 544 kts | 87° |
| 2026-05-08 03:21 | 39.09440 | 163.29192 | 33115 ft | 544 kts | 87° |
| 2026-05-08 03:22 | 39.09578 | 163.38937 | 33113 ft | 544 kts | 87° |
| 2026-05-08 03:22 | 39.09708 | 163.48674 | 33121 ft | 544 kts | 87° |
| 2026-05-08 03:23 | 39.09830 | 163.58420 | 33118 ft | 544 kts | 87° |
| 2026-05-08 03:23 | 39.09944 | 163.68153 | 33121 ft | 544 kts | 87° |
| 2026-05-08 03:24 | 39.10050 | 163.77891 | 33122 ft | 544 kts | 87° |
| 2026-05-08 03:24 | 39.10147 | 163.87631 | 33129 ft | 544 kts | 87° |
| 2026-05-08 03:25 | 39.10237 | 163.97384 | 33121 ft | 544 kts | 87° |
| 2026-05-08 03:25 | 39.10318 | 164.07124 | 33135 ft | 544 kts | 87° |
| 2026-05-08 03:26 | 39.10392 | 164.16873 | 33133 ft | 544 kts | 87° |
| 2026-05-08 03:26 | 39.10457 | 164.26618 | 33130 ft | 544 kts | 87° |
| 2026-05-08 03:27 | 39.10514 | 164.36367 | 33134 ft | 544 kts | 88° |
| 2026-05-08 03:27 | 39.10562 | 164.46050 | 33136 ft | 545 kts | 88° |
| 2026-05-08 03:28 | 39.10603 | 164.55797 | 33134 ft | 545 kts | 88° |
| 2026-05-08 03:28 | 39.10636 | 164.65560 | 33133 ft | 545 kts | 88° |
| 2026-05-08 03:29 | 39.10661 | 164.75336 | 33138 ft | 546 kts | 88° |
| 2026-05-08 03:29 | 39.10677 | 164.85101 | 33137 ft | 546 kts | 88° |
| 2026-05-08 03:30 | 39.10687 | 164.99765 | 33144 ft | 546 kts | 88° |
| 2026-05-08 03:31 | 39.10670 | 165.19302 | 33150 ft | 545 kts | 88° |
| 2026-05-08 03:32 | 39.10637 | 165.33941 | 33146 ft | 545 kts | 88° |
| 2026-05-08 03:32 | 39.10605 | 165.43697 | 33155 ft | 545 kts | 88° |
| 2026-05-08 03:33 | 39.10565 | 165.53399 | 33144 ft | 545 kts | 88° |
| 2026-05-08 03:33 | 39.10516 | 165.63150 | 33159 ft | 545 kts | 89° |
| 2026-05-08 03:34 | 39.10459 | 165.72902 | 33155 ft | 545 kts | 89° |
| 2026-05-08 03:34 | 39.10394 | 165.82659 | 33155 ft | 545 kts | 89° |
| 2026-05-08 03:35 | 39.10321 | 165.92416 | 33161 ft | 545 kts | 89° |
| 2026-05-08 03:35 | 39.10240 | 166.02175 | 33163 ft | 545 kts | 89° |
| 2026-05-08 03:36 | 39.10151 | 166.11938 | 33164 ft | 546 kts | 89° |
| 2026-05-08 03:36 | 39.10054 | 166.21702 | 33165 ft | 546 kts | 89° |
| 2026-05-08 03:37 | 39.09948 | 166.31469 | 33159 ft | 546 kts | 89° |
| 2026-05-08 03:37 | 39.09834 | 166.41246 | 33169 ft | 546 kts | 89° |
| 2026-05-08 03:38 | 39.09712 | 166.51016 | 33163 ft | 546 kts | 89° |
| 2026-05-08 03:38 | 39.09582 | 166.60793 | 33165 ft | 546 kts | 89° |
| 2026-05-08 03:39 | 39.09443 | 166.70566 | 33161 ft | 546 kts | 89° |
| 2026-05-08 03:39 | 39.09297 | 166.80338 | 33163 ft | 546 kts | 89° |
| 2026-05-08 03:40 | 39.09142 | 166.90100 | 33161 ft | 546 kts | 89° |
| 2026-05-08 03:40 | 39.08980 | 166.99864 | 33166 ft | 545 kts | 89° |
| 2026-05-08 03:41 | 39.08809 | 167.09622 | 33168 ft | 545 kts | 89° |
| 2026-05-08 03:41 | 39.08631 | 167.19306 | 33173 ft | 545 kts | 89° |
| 2026-05-08 03:42 | 39.08445 | 167.29046 | 33168 ft | 544 kts | 89° |
| 2026-05-08 03:42 | 39.08250 | 167.38787 | 33171 ft | 544 kts | 89° |
| 2026-05-08 03:43 | 39.08047 | 167.48521 | 33178 ft | 544 kts | 89° |
| 2026-05-08 03:43 | 39.07837 | 167.58245 | 33174 ft | 543 kts | 89° |
| 2026-05-08 03:44 | 39.07618 | 167.67968 | 33178 ft | 543 kts | 89° |
| 2026-05-08 03:44 | 39.07392 | 167.77678 | 33179 ft | 543 kts | 89° |
| 2026-05-08 03:45 | 39.07157 | 167.87379 | 33183 ft | 542 kts | 89° |
| 2026-05-08 03:45 | 39.06915 | 167.97075 | 33182 ft | 542 kts | 89° |
| 2026-05-08 03:46 | 39.06665 | 168.06767 | 33183 ft | 542 kts | 89° |
| 2026-05-08 03:46 | 39.06407 | 168.16471 | 33188 ft | 542 kts | 89° |
| 2026-05-08 03:47 | 39.06141 | 168.26159 | 33191 ft | 542 kts | 89° |
| 2026-05-08 03:47 | 39.05867 | 168.35841 | 33190 ft | 542 kts | 89° |
| 2026-05-08 03:48 | 39.05584 | 168.45540 | 33194 ft | 542 kts | 89° |
| 2026-05-08 03:48 | 39.05296 | 168.55174 | 33195 ft | 543 kts | 89° |
| 2026-05-08 03:49 | 39.04997 | 168.64878 | 33189 ft | 543 kts | 89° |
| 2026-05-08 03:49 | 39.04690 | 168.74593 | 33194 ft | 543 kts | 89° |
| 2026-05-08 03:50 | 39.04375 | 168.84299 | 33190 ft | 543 kts | 89° |
| 2026-05-08 03:50 | 39.04052 | 168.94005 | 33194 ft | 543 kts | 89° |
| 2026-05-08 03:51 | 39.03721 | 169.03707 | 33192 ft | 543 kts | 89° |
| 2026-05-08 03:51 | 39.03382 | 169.13390 | 33196 ft | 542 kts | 89° |
| 2026-05-08 03:52 | 39.03036 | 169.23078 | 33195 ft | 542 kts | 89° |
| 2026-05-08 03:52 | 39.02682 | 169.32754 | 33209 ft | 542 kts | 89° |
| 2026-05-08 03:52 | 39.02502 | 169.37596 | 33417 ft | 543 kts | 89° |
| 2026-05-08 03:53 | 39.02320 | 169.42433 | 33832 ft | 540 kts | 89° |
| 2026-05-08 03:53 | 39.02138 | 169.47179 | 34237 ft | 537 kts | 89° |
| 2026-05-08 03:53 | 39.01953 | 169.51972 | 34571 ft | 535 kts | 89° |
| 2026-05-08 03:53 | 39.01767 | 169.56745 | 34864 ft | 534 kts | 89° |
| 2026-05-08 03:54 | 39.01581 | 169.61516 | 35075 ft | 534 kts | 89° |
| 2026-05-08 03:54 | 39.01201 | 169.71079 | 35187 ft | 536 kts | 89° |
| 2026-05-08 03:55 | 39.00812 | 169.80625 | 35190 ft | 533 kts | 89° |
| 2026-05-08 03:55 | 39.00418 | 169.90121 | 35197 ft | 531 kts | 89° |
| 2026-05-08 03:56 | 39.00037 | 169.99578 | 35203 ft | 528 kts | 87° |
| 2026-05-08 03:56 | 39.00277 | 170.08962 | 35213 ft | 525 kts | 82° |
| 2026-05-08 03:57 | 39.00723 | 170.18349 | 35210 ft | 526 kts | 82° |
| 2026-05-08 03:57 | 39.01150 | 170.27752 | 35215 ft | 528 kts | 82° |
| 2026-05-08 03:58 | 39.01539 | 170.37193 | 35218 ft | 530 kts | 83° |
| 2026-05-08 03:58 | 39.01907 | 170.46666 | 35215 ft | 530 kts | 83° |
| 2026-05-08 03:59 | 39.02266 | 170.56142 | 35214 ft | 531 kts | 83° |
| 2026-05-08 03:59 | 39.02620 | 170.65595 | 35213 ft | 530 kts | 83° |
| 2026-05-08 04:00 | 39.02967 | 170.75062 | 35214 ft | 529 kts | 83° |
| 2026-05-08 04:00 | 39.03308 | 170.84525 | 35217 ft | 529 kts | 83° |
| 2026-05-08 04:01 | 39.03639 | 170.93963 | 35218 ft | 528 kts | 83° |
| 2026-05-08 04:01 | 39.03909 | 171.01805 | 35219 ft | 528 kts | 83° |
| 2026-05-08 04:02 | 39.04226 | 171.11229 | 35216 ft | 527 kts | 83° |
| 2026-05-08 04:02 | 39.04536 | 171.20647 | 35222 ft | 527 kts | 83° |
| 2026-05-08 04:03 | 39.04838 | 171.30068 | 35221 ft | 527 kts | 83° |
| 2026-05-08 04:03 | 39.05276 | 171.44193 | 35218 ft | 527 kts | 83° |
| 2026-05-08 04:04 | 39.05558 | 171.53594 | 35225 ft | 526 kts | 83° |
| 2026-05-08 04:04 | 39.05833 | 171.63010 | 35241 ft | 527 kts | 83° |
| 2026-05-08 04:05 | 39.06102 | 171.72433 | 35229 ft | 528 kts | 83° |
| 2026-05-08 04:05 | 39.06362 | 171.81878 | 35231 ft | 528 kts | 83° |
| 2026-05-08 04:06 | 39.06614 | 171.91263 | 35226 ft | 528 kts | 83° |
| 2026-05-08 04:06 | 39.06859 | 172.00711 | 35231 ft | 528 kts | 83° |
| 2026-05-08 04:07 | 39.07097 | 172.10159 | 35217 ft | 528 kts | 83° |
| 2026-05-08 04:07 | 39.07327 | 172.19603 | 35239 ft | 528 kts | 83° |
| 2026-05-08 04:08 | 39.07549 | 172.29051 | 35232 ft | 528 kts | 83° |
| 2026-05-08 04:08 | 39.07764 | 172.38494 | 35237 ft | 528 kts | 83° |
| 2026-05-08 04:09 | 39.07972 | 172.47950 | 35227 ft | 529 kts | 83° |
| 2026-05-08 04:09 | 39.08172 | 172.57408 | 35232 ft | 529 kts | 83° |
| 2026-05-08 04:10 | 39.08365 | 172.66872 | 35232 ft | 529 kts | 83° |
| 2026-05-08 04:10 | 39.08550 | 172.76350 | 35237 ft | 530 kts | 83° |
| 2026-05-08 04:11 | 39.08727 | 172.85833 | 35234 ft | 530 kts | 83° |
| 2026-05-08 04:11 | 39.08897 | 172.95324 | 35237 ft | 531 kts | 83° |
| 2026-05-08 04:12 | 39.09059 | 173.04832 | 35234 ft | 531 kts | 83° |
| 2026-05-08 04:12 | 39.09214 | 173.14336 | 35242 ft | 531 kts | 83° |
| 2026-05-08 04:13 | 39.09361 | 173.23850 | 35233 ft | 532 kts | 83° |
| 2026-05-08 04:13 | 39.09500 | 173.33360 | 35242 ft | 532 kts | 83° |
| 2026-05-08 04:14 | 39.09632 | 173.42890 | 35236 ft | 532 kts | 83° |
| 2026-05-08 04:14 | 39.09756 | 173.52417 | 35244 ft | 532 kts | 83° |
| 2026-05-08 04:15 | 39.09872 | 173.61950 | 35239 ft | 533 kts | 83° |
| 2026-05-08 04:15 | 39.09981 | 173.71490 | 35248 ft | 533 kts | 83° |
| 2026-05-08 04:16 | 39.10082 | 173.81034 | 35240 ft | 533 kts | 83° |
| 2026-05-08 04:16 | 39.10174 | 173.90508 | 35252 ft | 533 kts | 83° |
| 2026-05-08 04:17 | 39.10260 | 174.00110 | 35245 ft | 533 kts | 83° |
| 2026-05-08 04:17 | 39.10337 | 174.09588 | 35254 ft | 533 kts | 83° |
| 2026-05-08 04:18 | 39.10407 | 174.19135 | 35248 ft | 533 kts | 83° |
| 2026-05-08 04:18 | 39.10469 | 174.28667 | 35260 ft | 533 kts | 83° |
| 2026-05-08 04:19 | 39.10523 | 174.38223 | 35255 ft | 533 kts | 83° |
| 2026-05-08 04:19 | 39.10570 | 174.47779 | 35262 ft | 534 kts | 84° |
| 2026-05-08 04:20 | 39.10609 | 174.57341 | 35251 ft | 534 kts | 84° |
| 2026-05-08 04:20 | 39.10639 | 174.66893 | 35259 ft | 534 kts | 84° |
| 2026-05-08 04:21 | 39.10662 | 174.76455 | 35256 ft | 534 kts | 84° |
| 2026-05-08 04:21 | 39.10678 | 174.86025 | 35270 ft | 534 kts | 84° |
| 2026-05-08 04:22 | 39.10685 | 174.95578 | 35264 ft | 534 kts | 84° |
| 2026-05-08 04:22 | 39.10685 | 175.05128 | 35267 ft | 533 kts | 84° |
| 2026-05-08 04:23 | 39.10677 | 175.14619 | 35270 ft | 533 kts | 84° |
| 2026-05-08 04:23 | 39.10661 | 175.24156 | 35273 ft | 533 kts | 84° |
| 2026-05-08 04:24 | 39.10638 | 175.33706 | 35262 ft | 533 kts | 84° |
| 2026-05-08 04:24 | 39.10606 | 175.43243 | 35275 ft | 533 kts | 84° |
| 2026-05-08 04:25 | 39.10567 | 175.52784 | 35268 ft | 533 kts | 84° |
| 2026-05-08 04:25 | 39.10520 | 175.62325 | 35277 ft | 533 kts | 85° |
| 2026-05-08 04:26 | 39.10465 | 175.71851 | 35271 ft | 532 kts | 85° |
| 2026-05-08 04:26 | 39.10403 | 175.81382 | 35274 ft | 532 kts | 85° |
| 2026-05-08 04:27 | 39.10333 | 175.90909 | 35274 ft | 532 kts | 85° |
| 2026-05-08 04:27 | 39.10255 | 176.00436 | 35279 ft | 532 kts | 85° |
| 2026-05-08 04:28 | 39.10170 | 176.09938 | 35276 ft | 531 kts | 85° |
| 2026-05-08 04:28 | 39.10076 | 176.19452 | 35129 ft | 530 kts | 84° |
| 2026-05-08 04:29 | 39.09968 | 176.28768 | 35233 ft | 513 kts | 84° |
| 2026-05-08 04:29 | 39.09865 | 176.37948 | 35272 ft | 513 kts | 84° |
| 2026-05-08 04:30 | 39.09760 | 176.47139 | 35287 ft | 515 kts | 84° |
| 2026-05-08 04:30 | 39.09645 | 176.56305 | 35286 ft | 516 kts | 84° |
| 2026-05-08 04:31 | 39.09518 | 176.65555 | 35284 ft | 517 kts | 84° |
| 2026-05-08 04:31 | 39.09382 | 176.74829 | 35280 ft | 518 kts | 84° |
| 2026-05-08 04:32 | 39.09239 | 176.84089 | 35280 ft | 517 kts | 84° |
| 2026-05-08 04:32 | 39.09089 | 176.93338 | 35276 ft | 516 kts | 84° |
| 2026-05-08 04:33 | 39.08932 | 177.02555 | 35278 ft | 515 kts | 84° |
| 2026-05-08 04:33 | 39.08769 | 177.11759 | 35280 ft | 514 kts | 84° |
| 2026-05-08 04:34 | 39.08600 | 177.20946 | 35286 ft | 513 kts | 84° |
| 2026-05-08 04:34 | 39.08423 | 177.30118 | 35276 ft | 512 kts | 85° |
| 2026-05-08 04:35 | 39.08240 | 177.39285 | 35281 ft | 512 kts | 85° |
| 2026-05-08 04:35 | 39.08049 | 177.48437 | 35276 ft | 511 kts | 85° |
| 2026-05-08 04:36 | 39.07853 | 177.57526 | 35282 ft | 511 kts | 85° |
| 2026-05-08 04:36 | 39.07648 | 177.66673 | 35279 ft | 512 kts | 85° |
| 2026-05-08 04:37 | 39.07436 | 177.75825 | 35290 ft | 512 kts | 85° |
| 2026-05-08 04:37 | 39.07217 | 177.84986 | 35278 ft | 512 kts | 85° |
| 2026-05-08 04:38 | 39.06990 | 177.94141 | 35292 ft | 512 kts | 85° |
| 2026-05-08 04:38 | 39.06756 | 178.03303 | 35283 ft | 512 kts | 85° |
| 2026-05-08 04:39 | 39.06515 | 178.12465 | 35285 ft | 512 kts | 85° |
| 2026-05-08 04:39 | 39.06266 | 178.21629 | 35283 ft | 513 kts | 86° |
| 2026-05-08 04:40 | 39.06011 | 178.30791 | 35286 ft | 513 kts | 86° |
| 2026-05-08 04:40 | 39.05748 | 178.39960 | 35282 ft | 513 kts | 86° |
| 2026-05-08 04:41 | 39.05477 | 178.49126 | 35285 ft | 513 kts | 86° |
| 2026-05-08 04:41 | 39.05200 | 178.58294 | 35284 ft | 513 kts | 86° |
| 2026-05-08 04:42 | 39.04916 | 178.67467 | 35284 ft | 513 kts | 86° |
| 2026-05-08 04:42 | 39.04626 | 178.76579 | 35287 ft | 513 kts | 86° |
| 2026-05-08 04:43 | 39.04327 | 178.85750 | 35288 ft | 513 kts | 86° |
| 2026-05-08 04:43 | 39.04021 | 178.94928 | 35285 ft | 514 kts | 86° |
| 2026-05-08 04:44 | 39.03708 | 179.04102 | 35286 ft | 514 kts | 86° |
| 2026-05-08 04:44 | 39.03387 | 179.13285 | 35290 ft | 514 kts | 87° |
| 2026-05-08 04:45 | 39.03059 | 179.22460 | 35288 ft | 514 kts | 87° |
| 2026-05-08 04:45 | 39.02723 | 179.31643 | 35287 ft | 514 kts | 87° |
| 2026-05-08 04:46 | 39.02380 | 179.40829 | 35287 ft | 514 kts | 87° |
| 2026-05-08 04:46 | 39.02030 | 179.50020 | 35283 ft | 514 kts | 87° |
| 2026-05-08 04:47 | 39.01673 | 179.59202 | 35284 ft | 515 kts | 87° |
| 2026-05-08 04:47 | 39.01308 | 179.68412 | 35284 ft | 515 kts | 88° |
| 2026-05-08 04:48 | 39.00936 | 179.77606 | 35288 ft | 515 kts | 88° |
| 2026-05-08 04:48 | 39.00556 | 179.86808 | 35286 ft | 516 kts | 88° |
| 2026-05-08 04:49 | 39.00236 | 179.94467 | 35288 ft | 516 kts | 88° |
| 2026-05-08 04:49 | 39.00120 | -179.94858 | 35288 ft | 511 kts | 81° |
| 2026-05-08 04:50 | 39.00460 | -179.87216 | 35288 ft | 511 kts | 81° |
| 2026-05-08 04:50 | 39.00893 | -179.78081 | 35281 ft | 513 kts | 81° |
| 2026-05-08 04:51 | 39.01291 | -179.68918 | 35283 ft | 514 kts | 81° |
| 2026-05-08 04:51 | 39.01659 | -179.59730 | 35285 ft | 515 kts | 82° |
| 2026-05-08 04:52 | 39.02014 | -179.50519 | 35283 ft | 516 kts | 82° |
| 2026-05-08 04:52 | 39.02363 | -179.41304 | 35283 ft | 517 kts | 82° |
| 2026-05-08 04:53 | 39.02708 | -179.32057 | 35283 ft | 518 kts | 82° |
| 2026-05-08 04:53 | 39.03046 | -179.22805 | 35280 ft | 518 kts | 82° |
| 2026-05-08 04:54 | 39.03378 | -179.13540 | 35281 ft | 519 kts | 82° |
| 2026-05-08 04:54 | 39.03702 | -179.04272 | 35281 ft | 519 kts | 82° |
| 2026-05-08 04:55 | 39.04019 | -178.94980 | 35281 ft | 520 kts | 82° |
| 2026-05-08 04:55 | 39.04329 | -178.85685 | 35268 ft | 520 kts | 82° |
| 2026-05-08 04:56 | 39.04633 | -178.76375 | 35285 ft | 521 kts | 82° |
| 2026-05-08 04:56 | 39.04927 | -178.67122 | 35275 ft | 521 kts | 82° |
| 2026-05-08 04:57 | 39.05215 | -178.57804 | 35277 ft | 522 kts | 83° |
| 2026-05-08 04:57 | 39.05499 | -178.48414 | 35282 ft | 522 kts | 83° |
| 2026-05-08 04:58 | 39.05772 | -178.39138 | 35275 ft | 522 kts | 83° |
| 2026-05-08 04:58 | 39.06039 | -178.29799 | 35278 ft | 523 kts | 83° |
| 2026-05-08 04:59 | 39.06298 | -178.20446 | 35272 ft | 523 kts | 83° |
| 2026-05-08 04:59 | 39.06551 | -178.11100 | 35278 ft | 523 kts | 83° |
| 2026-05-08 05:00 | 39.06796 | -178.01747 | 35278 ft | 523 kts | 83° |
| 2026-05-08 05:00 | 39.07033 | -177.92384 | 35271 ft | 523 kts | 83° |
| 2026-05-08 05:01 | 39.07263 | -177.83031 | 35272 ft | 523 kts | 83° |
| 2026-05-08 05:01 | 39.07486 | -177.73684 | 35277 ft | 523 kts | 83° |
| 2026-05-08 05:02 | 39.07701 | -177.64325 | 35275 ft | 523 kts | 83° |
| 2026-05-08 05:02 | 39.07908 | -177.54965 | 35273 ft | 523 kts | 83° |
| 2026-05-08 05:03 | 39.08109 | -177.45611 | 35268 ft | 523 kts | 83° |
| 2026-05-08 05:03 | 39.08301 | -177.36256 | 35268 ft | 523 kts | 83° |
| 2026-05-08 05:04 | 39.08486 | -177.26892 | 35269 ft | 523 kts | 83° |
| 2026-05-08 05:04 | 39.08664 | -177.17532 | 35277 ft | 523 kts | 84° |
| 2026-05-08 05:05 | 39.08835 | -177.08167 | 35274 ft | 524 kts | 84° |
| 2026-05-08 05:05 | 39.08998 | -176.98783 | 35266 ft | 524 kts | 84° |
| 2026-05-08 05:06 | 39.09153 | -176.89413 | 35276 ft | 524 kts | 84° |
| 2026-05-08 05:06 | 39.09301 | -176.80026 | 35271 ft | 524 kts | 84° |
| 2026-05-08 05:07 | 39.09442 | -176.70638 | 35264 ft | 525 kts | 84° |
| 2026-05-08 05:07 | 39.09575 | -176.61253 | 35270 ft | 525 kts | 84° |
| 2026-05-08 05:08 | 39.09701 | -176.51856 | 35264 ft | 525 kts | 84° |
| 2026-05-08 05:08 | 39.09819 | -176.42445 | 35265 ft | 525 kts | 84° |
| 2026-05-08 05:09 | 39.09930 | -176.33040 | 35259 ft | 526 kts | 84° |
| 2026-05-08 05:09 | 39.10033 | -176.23627 | 35259 ft | 526 kts | 84° |
| 2026-05-08 05:10 | 39.10174 | -176.09498 | 35267 ft | 526 kts | 84° |
| 2026-05-08 05:11 | 39.10258 | -176.00067 | 35268 ft | 527 kts | 84° |
| 2026-05-08 05:11 | 39.10335 | -175.90635 | 35263 ft | 527 kts | 84° |
| 2026-05-08 05:12 | 39.10404 | -175.81197 | 35265 ft | 527 kts | 84° |
| 2026-05-08 05:12 | 39.10465 | -175.71816 | 35261 ft | 527 kts | 84° |
| 2026-05-08 05:13 | 39.10520 | -175.62378 | 35258 ft | 527 kts | 85° |
| 2026-05-08 05:13 | 39.10566 | -175.52934 | 35254 ft | 527 kts | 85° |
| 2026-05-08 05:14 | 39.10605 | -175.43494 | 35254 ft | 527 kts | 85° |
| 2026-05-08 05:14 | 39.10636 | -175.34056 | 35250 ft | 527 kts | 85° |
| 2026-05-08 05:15 | 39.10660 | -175.24614 | 35252 ft | 527 kts | 85° |
| 2026-05-08 05:15 | 39.10676 | -175.15163 | 35247 ft | 528 kts | 85° |
| 2026-05-08 05:16 | 39.10684 | -175.05718 | 35247 ft | 528 kts | 85° |
| 2026-05-08 05:16 | 39.10685 | -174.96259 | 35243 ft | 528 kts | 85° |
| 2026-05-08 05:17 | 39.10678 | -174.86810 | 35242 ft | 528 kts | 85° |
| 2026-05-08 05:17 | 39.10664 | -174.77346 | 35240 ft | 528 kts | 85° |
| 2026-05-08 05:18 | 39.10642 | -174.67884 | 35238 ft | 529 kts | 85° |
| 2026-05-08 05:18 | 39.10612 | -174.58418 | 35237 ft | 529 kts | 85° |
| 2026-05-08 05:19 | 39.10574 | -174.48947 | 35236 ft | 529 kts | 85° |
| 2026-05-08 05:19 | 39.10529 | -174.39535 | 35235 ft | 529 kts | 85° |
| 2026-05-08 05:20 | 39.10477 | -174.30057 | 35237 ft | 530 kts | 85° |
| 2026-05-08 05:20 | 39.10416 | -174.20568 | 35230 ft | 530 kts | 85° |
| 2026-05-08 05:21 | 39.10348 | -174.11086 | 35229 ft | 530 kts | 86° |
| 2026-05-08 05:21 | 39.10272 | -174.01601 | 35227 ft | 530 kts | 86° |
| 2026-05-08 05:22 | 39.10189 | -173.92099 | 35223 ft | 530 kts | 86° |
| 2026-05-08 05:22 | 39.10097 | -173.82605 | 35226 ft | 531 kts | 86° |
| 2026-05-08 05:23 | 39.09998 | -173.73100 | 35220 ft | 531 kts | 86° |
| 2026-05-08 05:23 | 39.09891 | -173.63589 | 35219 ft | 531 kts | 86° |
| 2026-05-08 05:24 | 39.09776 | -173.54078 | 35220 ft | 532 kts | 86° |
| 2026-05-08 05:24 | 39.09654 | -173.44548 | 35218 ft | 532 kts | 86° |
| 2026-05-08 05:25 | 39.09523 | -173.35024 | 35217 ft | 532 kts | 86° |
| 2026-05-08 05:25 | 39.09385 | -173.25488 | 35214 ft | 533 kts | 86° |
| 2026-05-08 05:26 | 39.09239 | -173.15955 | 35200 ft | 533 kts | 86° |
| 2026-05-08 05:26 | 39.09085 | -173.06419 | 35210 ft | 533 kts | 86° |
| 2026-05-08 05:27 | 39.08923 | -172.96877 | 35203 ft | 533 kts | 86° |
| 2026-05-08 05:27 | 39.08754 | -172.87332 | 35206 ft | 534 kts | 87° |
| 2026-05-08 05:28 | 39.08577 | -172.77832 | 35199 ft | 534 kts | 87° |
| 2026-05-08 05:28 | 39.08392 | -172.68275 | 35199 ft | 535 kts | 87° |
| 2026-05-08 05:29 | 39.08198 | -172.58710 | 35203 ft | 535 kts | 87° |
| 2026-05-08 05:29 | 39.07997 | -172.49135 | 35198 ft | 535 kts | 87° |
| 2026-05-08 05:30 | 39.07788 | -172.39556 | 35197 ft | 536 kts | 87° |
| 2026-05-08 05:30 | 39.07570 | -172.29969 | 35194 ft | 536 kts | 87° |
| 2026-05-08 05:31 | 39.07345 | -172.20378 | 35196 ft | 536 kts | 87° |
| 2026-05-08 05:31 | 39.07112 | -172.10791 | 35199 ft | 536 kts | 87° |
| 2026-05-08 05:32 | 39.06871 | -172.01200 | 35195 ft | 536 kts | 87° |
| 2026-05-08 05:32 | 39.06622 | -171.91607 | 35191 ft | 536 kts | 87° |
| 2026-05-08 05:33 | 39.06365 | -171.82000 | 35190 ft | 537 kts | 88° |
| 2026-05-08 05:33 | 39.06100 | -171.72408 | 35187 ft | 537 kts | 88° |
| 2026-05-08 05:34 | 39.05827 | -171.62803 | 35185 ft | 537 kts | 88° |
| 2026-05-08 05:34 | 39.05547 | -171.53206 | 35185 ft | 537 kts | 88° |
| 2026-05-08 05:35 | 39.05260 | -171.43659 | 35185 ft | 538 kts | 88° |
| 2026-05-08 05:35 | 39.04963 | -171.34039 | 35183 ft | 538 kts | 88° |
| 2026-05-08 05:36 | 39.04658 | -171.24425 | 35184 ft | 538 kts | 88° |
| 2026-05-08 05:36 | 39.04396 | -171.16361 | 35176 ft | 539 kts | 88° |
| 2026-05-08 05:37 | 39.04076 | -171.06735 | 35181 ft | 539 kts | 88° |
| 2026-05-08 05:37 | 39.03748 | -170.97097 | 35177 ft | 539 kts | 88° |
| 2026-05-08 05:38 | 39.03412 | -170.87457 | 35176 ft | 540 kts | 88° |
| 2026-05-08 05:38 | 39.03068 | -170.77817 | 35178 ft | 540 kts | 88° |
| 2026-05-08 05:39 | 39.02718 | -170.68240 | 35174 ft | 540 kts | 88° |
| 2026-05-08 05:39 | 39.02358 | -170.58588 | 35165 ft | 540 kts | 89° |
| 2026-05-08 05:40 | 39.01990 | -170.48946 | 35169 ft | 540 kts | 89° |
| 2026-05-08 05:40 | 39.01613 | -170.39290 | 35167 ft | 540 kts | 89° |
| 2026-05-08 05:41 | 39.01229 | -170.29644 | 35164 ft | 541 kts | 89° |
| 2026-05-08 05:41 | 39.00837 | -170.19985 | 35166 ft | 541 kts | 89° |
| 2026-05-08 05:42 | 39.00436 | -170.10321 | 35159 ft | 541 kts | 89° |
| 2026-05-08 05:42 | 39.00029 | -170.00663 | 35159 ft | 542 kts | 89° |
| 2026-05-08 05:43 | 38.99537 | -169.90975 | 35159 ft | 543 kts | 90° |
| 2026-05-08 05:43 | 38.98956 | -169.81298 | 35159 ft | 544 kts | 90° |
| 2026-05-08 05:44 | 38.98366 | -169.71607 | 35153 ft | 544 kts | 90° |
| 2026-05-08 05:44 | 38.97789 | -169.61975 | 35151 ft | 544 kts | 90° |
| 2026-05-08 05:45 | 38.97208 | -169.52281 | 35152 ft | 544 kts | 90° |
| 2026-05-08 05:45 | 38.96620 | -169.42579 | 35147 ft | 544 kts | 91° |
| 2026-05-08 05:46 | 38.96023 | -169.32885 | 35152 ft | 545 kts | 91° |
| 2026-05-08 05:46 | 38.95415 | -169.23170 | 35138 ft | 545 kts | 91° |
| 2026-05-08 05:47 | 38.94799 | -169.13460 | 35141 ft | 545 kts | 91° |
| 2026-05-08 05:47 | 38.94175 | -169.03745 | 35137 ft | 546 kts | 91° |
| 2026-05-08 05:48 | 38.93543 | -168.94032 | 35138 ft | 546 kts | 91° |
| 2026-05-08 05:48 | 38.92903 | -168.84315 | 35137 ft | 546 kts | 91° |
| 2026-05-08 05:49 | 38.92254 | -168.74594 | 35133 ft | 547 kts | 91° |
| 2026-05-08 05:49 | 38.91601 | -168.64930 | 35136 ft | 547 kts | 91° |
| 2026-05-08 05:50 | 38.90936 | -168.55211 | 35135 ft | 547 kts | 91° |
| 2026-05-08 05:50 | 38.90261 | -168.45472 | 35128 ft | 548 kts | 91° |
| 2026-05-08 05:51 | 38.89578 | -168.35731 | 35126 ft | 548 kts | 92° |
| 2026-05-08 05:51 | 38.88887 | -168.25986 | 35127 ft | 549 kts | 92° |
| 2026-05-08 05:52 | 38.88186 | -168.16228 | 35121 ft | 549 kts | 92° |
| 2026-05-08 05:52 | 38.87478 | -168.06483 | 35122 ft | 549 kts | 92° |
| 2026-05-08 05:53 | 38.86760 | -167.96717 | 35124 ft | 549 kts | 92° |
| 2026-05-08 05:53 | 38.86036 | -167.86967 | 35120 ft | 549 kts | 92° |
| 2026-05-08 05:54 | 38.85302 | -167.77206 | 35120 ft | 550 kts | 92° |
| 2026-05-08 05:54 | 38.84560 | -167.67447 | 35122 ft | 550 kts | 92° |
| 2026-05-08 05:55 | 38.83809 | -167.57683 | 35115 ft | 550 kts | 92° |
| 2026-05-08 05:55 | 38.83050 | -167.47920 | 35115 ft | 550 kts | 93° |
| 2026-05-08 05:56 | 38.82283 | -167.38165 | 35112 ft | 550 kts | 93° |
| 2026-05-08 05:56 | 38.81508 | -167.28400 | 35107 ft | 550 kts | 93° |
| 2026-05-08 05:57 | 38.80724 | -167.18632 | 35105 ft | 551 kts | 93° |
| 2026-05-08 05:57 | 38.79932 | -167.08878 | 35104 ft | 551 kts | 93° |
| 2026-05-08 05:58 | 38.79131 | -166.99110 | 35103 ft | 551 kts | 93° |
| 2026-05-08 05:58 | 38.78322 | -166.89340 | 35102 ft | 551 kts | 94° |
| 2026-05-08 05:59 | 38.77505 | -166.79576 | 35107 ft | 551 kts | 94° |
| 2026-05-08 05:59 | 38.76678 | -166.69792 | 35099 ft | 552 kts | 94° |
| 2026-05-08 06:00 | 38.75844 | -166.60023 | 35091 ft | 552 kts | 94° |
| 2026-05-08 06:00 | 38.74999 | -166.50224 | 35090 ft | 553 kts | 94° |
| 2026-05-08 06:01 | 38.74147 | -166.40439 | 35090 ft | 553 kts | 94° |
| 2026-05-08 06:01 | 38.73285 | -166.30638 | 35086 ft | 554 kts | 94° |
| 2026-05-08 06:02 | 38.72414 | -166.20835 | 35085 ft | 554 kts | 94° |
| 2026-05-08 06:02 | 38.71534 | -166.11022 | 35084 ft | 555 kts | 95° |
| 2026-05-08 06:03 | 38.70650 | -166.01261 | 35091 ft | 555 kts | 95° |
| 2026-05-08 06:03 | 38.69752 | -165.91430 | 35087 ft | 556 kts | 95° |
| 2026-05-08 06:04 | 38.68844 | -165.81592 | 35081 ft | 557 kts | 95° |
| 2026-05-08 06:04 | 38.67929 | -165.71760 | 35084 ft | 557 kts | 95° |
| 2026-05-08 06:05 | 38.67004 | -165.61910 | 35086 ft | 558 kts | 95° |
| 2026-05-08 06:05 | 38.66069 | -165.52051 | 35078 ft | 558 kts | 95° |
| 2026-05-08 06:06 | 38.65126 | -165.42202 | 35079 ft | 558 kts | 95° |
| 2026-05-08 06:06 | 38.64174 | -165.32337 | 35076 ft | 559 kts | 96° |
| 2026-05-08 06:07 | 38.63213 | -165.22475 | 35074 ft | 559 kts | 96° |
| 2026-05-08 06:07 | 38.62243 | -165.12610 | 35073 ft | 559 kts | 96° |
| 2026-05-08 06:08 | 38.61266 | -165.02751 | 35071 ft | 559 kts | 96° |
| 2026-05-08 06:08 | 38.60280 | -164.92897 | 35070 ft | 559 kts | 96° |
| 2026-05-08 06:09 | 38.59286 | -164.83044 | 35068 ft | 559 kts | 96° |
| 2026-05-08 06:09 | 38.58283 | -164.73186 | 35069 ft | 559 kts | 96° |
| 2026-05-08 06:10 | 38.57271 | -164.63327 | 35067 ft | 560 kts | 96° |
| 2026-05-08 06:10 | 38.56251 | -164.53467 | 35067 ft | 560 kts | 96° |
| 2026-05-08 06:11 | 38.55229 | -164.43671 | 35064 ft | 560 kts | 97° |
| 2026-05-08 06:11 | 38.54190 | -164.33803 | 35060 ft | 560 kts | 97° |
| 2026-05-08 06:12 | 38.53144 | -164.23938 | 35061 ft | 561 kts | 97° |
| 2026-05-08 06:12 | 38.52088 | -164.14072 | 35061 ft | 561 kts | 97° |
| 2026-05-08 06:13 | 38.51025 | -164.04213 | 35059 ft | 561 kts | 97° |
| 2026-05-08 06:13 | 38.49953 | -163.94351 | 35059 ft | 561 kts | 97° |
| 2026-05-08 06:14 | 38.48874 | -163.84500 | 35057 ft | 561 kts | 97° |
| 2026-05-08 06:14 | 38.47785 | -163.74645 | 35053 ft | 561 kts | 97° |
| 2026-05-08 06:15 | 38.46689 | -163.64800 | 35051 ft | 560 kts | 97° |
| 2026-05-08 06:15 | 38.45585 | -163.54957 | 35052 ft | 560 kts | 97° |
| 2026-05-08 06:16 | 38.44472 | -163.45111 | 35046 ft | 560 kts | 98° |
| 2026-05-08 06:16 | 38.43352 | -163.35276 | 35046 ft | 560 kts | 98° |
| 2026-05-08 06:17 | 38.41655 | -163.20527 | 35044 ft | 560 kts | 98° |
| 2026-05-08 06:17 | 38.40514 | -163.10695 | 35046 ft | 560 kts | 98° |
| 2026-05-08 06:18 | 38.39363 | -163.00859 | 35045 ft | 560 kts | 98° |
| 2026-05-08 06:18 | 38.38206 | -162.91038 | 35042 ft | 560 kts | 98° |
| 2026-05-08 06:19 | 38.37039 | -162.81213 | 35040 ft | 560 kts | 98° |
| 2026-05-08 06:19 | 38.35866 | -162.71401 | 35041 ft | 560 kts | 98° |
| 2026-05-08 06:20 | 38.34691 | -162.61649 | 35039 ft | 560 kts | 99° |
| 2026-05-08 06:20 | 38.33493 | -162.51773 | 35033 ft | 560 kts | 99° |
| 2026-05-08 06:21 | 38.32302 | -162.42028 | 35036 ft | 561 kts | 99° |
| 2026-05-08 06:21 | 38.31095 | -162.32221 | 35031 ft | 561 kts | 99° |
| 2026-05-08 06:22 | 38.29879 | -162.22411 | 35034 ft | 560 kts | 99° |
| 2026-05-08 06:22 | 38.28655 | -162.12612 | 35033 ft | 560 kts | 99° |
| 2026-05-08 06:23 | 38.27636 | -162.04500 | 35030 ft | 560 kts | 99° |
| 2026-05-08 06:23 | 38.26400 | -161.94725 | 35025 ft | 559 kts | 99° |
| 2026-05-08 06:24 | 38.24952 | -161.83357 | 35029 ft | 559 kts | 99° |
| 2026-05-08 06:24 | 38.23904 | -161.75180 | 35028 ft | 558 kts | 100° |
| 2026-05-08 06:25 | 38.22648 | -161.65453 | 35028 ft | 558 kts | 100° |
| 2026-05-08 06:25 | 38.21389 | -161.55761 | 35026 ft | 558 kts | 100° |
| 2026-05-08 06:26 | 38.20109 | -161.45972 | 35026 ft | 557 kts | 100° |
| 2026-05-08 06:26 | 38.18839 | -161.36323 | 35024 ft | 557 kts | 100° |
| 2026-05-08 06:27 | 38.17551 | -161.26608 | 35021 ft | 557 kts | 100° |
| 2026-05-08 06:27 | 38.16256 | -161.16895 | 35025 ft | 557 kts | 100° |
| 2026-05-08 06:28 | 38.14954 | -161.07197 | 35023 ft | 557 kts | 101° |
| 2026-05-08 06:28 | 38.13645 | -160.97514 | 35022 ft | 556 kts | 101° |
| 2026-05-08 06:29 | 38.12328 | -160.87828 | 35022 ft | 556 kts | 101° |
| 2026-05-08 06:29 | 38.10994 | -160.78085 | 35019 ft | 556 kts | 101° |
| 2026-05-08 06:30 | 38.09669 | -160.68467 | 35018 ft | 556 kts | 101° |
| 2026-05-08 06:30 | 38.08330 | -160.58802 | 35021 ft | 556 kts | 101° |
| 2026-05-08 06:31 | 38.06981 | -160.49134 | 35018 ft | 556 kts | 101° |
| 2026-05-08 06:31 | 38.05626 | -160.39477 | 35017 ft | 556 kts | 101° |
| 2026-05-08 06:32 | 38.04262 | -160.29818 | 35018 ft | 556 kts | 101° |
| 2026-05-08 06:32 | 38.02892 | -160.20175 | 35017 ft | 555 kts | 101° |
| 2026-05-08 06:33 | 38.01516 | -160.10540 | 35018 ft | 555 kts | 101° |
| 2026-05-08 06:33 | 38.00309 | -160.00870 | 35018 ft | 556 kts | 95° |
| 2026-05-08 06:34 | 38.00227 | -159.91160 | 35017 ft | 555 kts | 86° |
| 2026-05-08 06:34 | 38.00699 | -159.81391 | 35018 ft | 555 kts | 85° |
| 2026-05-08 06:35 | 38.01157 | -159.71616 | 35015 ft | 556 kts | 86° |
| 2026-05-08 06:35 | 38.01563 | -159.61815 | 35011 ft | 556 kts | 86° |
| 2026-05-08 06:36 | 38.01938 | -159.52021 | 35010 ft | 556 kts | 86° |
| 2026-05-08 06:36 | 38.02304 | -159.42225 | 35011 ft | 556 kts | 86° |
| 2026-05-08 06:37 | 38.02666 | -159.32427 | 35010 ft | 556 kts | 86° |
| 2026-05-08 06:37 | 38.03022 | -159.22632 | 35010 ft | 556 kts | 86° |
| 2026-05-08 06:38 | 38.03370 | -159.12828 | 35008 ft | 556 kts | 87° |
| 2026-05-08 06:38 | 38.03709 | -159.03030 | 35008 ft | 556 kts | 87° |
| 2026-05-08 06:39 | 38.04040 | -158.93239 | 35006 ft | 556 kts | 87° |
| 2026-05-08 06:39 | 38.04363 | -158.83440 | 35003 ft | 555 kts | 87° |
| 2026-05-08 06:40 | 38.04677 | -158.73661 | 35002 ft | 555 kts | 87° |
| 2026-05-08 06:40 | 38.04983 | -158.63877 | 35003 ft | 555 kts | 87° |
| 2026-05-08 06:41 | 38.05280 | -158.54113 | 35006 ft | 554 kts | 87° |
| 2026-05-08 06:41 | 38.05570 | -158.44329 | 35008 ft | 554 kts | 88° |
| 2026-05-08 06:42 | 38.05851 | -158.34563 | 35005 ft | 554 kts | 88° |
| 2026-05-08 06:42 | 38.06124 | -158.24789 | 35007 ft | 554 kts | 88° |
| 2026-05-08 06:43 | 38.06389 | -158.15023 | 35002 ft | 554 kts | 88° |
| 2026-05-08 06:43 | 38.06647 | -158.05250 | 35006 ft | 554 kts | 88° |
| 2026-05-08 06:44 | 38.06896 | -157.95477 | 35001 ft | 554 kts | 88° |
| 2026-05-08 06:44 | 38.07136 | -157.85709 | 35003 ft | 554 kts | 88° |
| 2026-05-08 06:45 | 38.07369 | -157.75946 | 35002 ft | 554 kts | 88° |
| 2026-05-08 06:45 | 38.07594 | -157.66173 | 35002 ft | 554 kts | 88° |
| 2026-05-08 06:46 | 38.07809 | -157.56466 | 34999 ft | 554 kts | 88° |
| 2026-05-08 06:46 | 38.08018 | -157.46641 | 34998 ft | 553 kts | 89° |
| 2026-05-08 06:47 | 38.08217 | -157.36940 | 35000 ft | 553 kts | 89° |
| 2026-05-08 06:47 | 38.08409 | -157.27175 | 35001 ft | 553 kts | 89° |
| 2026-05-08 06:48 | 38.08593 | -157.17420 | 34998 ft | 553 kts | 89° |
| 2026-05-08 06:48 | 38.08769 | -157.07662 | 35002 ft | 553 kts | 89° |
| 2026-05-08 06:49 | 38.08937 | -156.97917 | 35001 ft | 552 kts | 89° |
| 2026-05-08 06:49 | 38.09097 | -156.88158 | 34999 ft | 552 kts | 89° |
| 2026-05-08 06:50 | 38.09248 | -156.78415 | 35003 ft | 552 kts | 89° |
| 2026-05-08 06:50 | 38.09391 | -156.68670 | 34998 ft | 552 kts | 89° |
| 2026-05-08 06:51 | 38.09527 | -156.58932 | 34998 ft | 552 kts | 90° |
| 2026-05-08 06:51 | 38.09654 | -156.49197 | 34998 ft | 551 kts | 90° |
| 2026-05-08 06:52 | 38.09773 | -156.39473 | 34998 ft | 551 kts | 90° |
| 2026-05-08 06:52 | 38.09884 | -156.29738 | 35007 ft | 551 kts | 90° |
| 2026-05-08 06:53 | 38.09987 | -156.20016 | 34999 ft | 550 kts | 90° |
| 2026-05-08 06:53 | 38.10081 | -156.10372 | 34993 ft | 550 kts | 90° |
| 2026-05-08 06:54 | 38.10168 | -156.00662 | 35002 ft | 549 kts | 90° |
| 2026-05-08 06:54 | 38.10247 | -155.90973 | 35001 ft | 549 kts | 90° |
| 2026-05-08 06:55 | 38.10318 | -155.81271 | 35002 ft | 549 kts | 90° |
| 2026-05-08 06:55 | 38.10381 | -155.71589 | 34994 ft | 548 kts | 90° |
| 2026-05-08 06:56 | 38.10435 | -155.61913 | 34993 ft | 548 kts | 91° |
| 2026-05-08 06:56 | 38.10482 | -155.52220 | 34992 ft | 548 kts | 91° |
| 2026-05-08 06:57 | 38.10521 | -155.42541 | 34994 ft | 548 kts | 91° |
| 2026-05-08 06:57 | 38.10552 | -155.32873 | 34999 ft | 548 kts | 91° |
| 2026-05-08 06:58 | 38.10575 | -155.23205 | 34996 ft | 548 kts | 91° |
| 2026-05-08 06:58 | 38.10590 | -155.13535 | 35009 ft | 547 kts | 91° |
| 2026-05-08 06:59 | 38.10597 | -155.03872 | 34996 ft | 547 kts | 91° |
| 2026-05-08 06:59 | 38.10597 | -154.94213 | 35009 ft | 547 kts | 91° |
| 2026-05-08 07:00 | 38.10588 | -154.84549 | 34994 ft | 547 kts | 91° |
| 2026-05-08 07:00 | 38.10571 | -154.74892 | 34995 ft | 547 kts | 91° |
| 2026-05-08 07:01 | 38.10547 | -154.65230 | 34996 ft | 547 kts | 92° |
| 2026-05-08 07:01 | 38.10515 | -154.55579 | 34994 ft | 547 kts | 92° |
| 2026-05-08 07:02 | 38.10475 | -154.45917 | 34994 ft | 547 kts | 92° |
| 2026-05-08 07:02 | 38.10426 | -154.36268 | 34997 ft | 546 kts | 92° |
| 2026-05-08 07:03 | 38.10371 | -154.26683 | 34996 ft | 546 kts | 92° |
| 2026-05-08 07:03 | 38.10307 | -154.16979 | 34990 ft | 546 kts | 92° |
| 2026-05-08 07:04 | 38.10235 | -154.07337 | 34998 ft | 546 kts | 92° |
| 2026-05-08 07:04 | 38.10156 | -153.97773 | 35006 ft | 546 kts | 93° |
| 2026-05-08 07:05 | 38.10069 | -153.88139 | 35001 ft | 545 kts | 93° |
| 2026-05-08 07:05 | 38.09973 | -153.78518 | 34997 ft | 545 kts | 93° |
| 2026-05-08 07:06 | 38.09871 | -153.68894 | 35001 ft | 545 kts | 93° |
| 2026-05-08 07:06 | 38.09760 | -153.59283 | 34999 ft | 544 kts | 93° |
| 2026-05-08 07:07 | 38.09641 | -153.49676 | 35001 ft | 544 kts | 93° |
| 2026-05-08 07:07 | 38.09515 | -153.40070 | 35000 ft | 544 kts | 94° |
| 2026-05-08 07:08 | 38.09381 | -153.30471 | 34999 ft | 544 kts | 94° |
| 2026-05-08 07:08 | 38.09239 | -153.20864 | 34999 ft | 544 kts | 94° |
| 2026-05-08 07:09 | 38.09089 | -153.11256 | 34999 ft | 544 kts | 94° |
| 2026-05-08 07:09 | 38.08959 | -153.03278 | 34999 ft | 544 kts | 94° |
| 2026-05-08 07:10 | 38.08795 | -152.93675 | 34999 ft | 544 kts | 94° |
| 2026-05-08 07:10 | 38.08623 | -152.84070 | 34999 ft | 544 kts | 94° |
| 2026-05-08 07:11 | 38.08444 | -152.74476 | 35000 ft | 544 kts | 94° |
| 2026-05-08 07:11 | 38.08257 | -152.64889 | 35003 ft | 544 kts | 94° |
| 2026-05-08 07:12 | 38.08061 | -152.55297 | 35000 ft | 543 kts | 94° |
| 2026-05-08 07:12 | 38.07859 | -152.45704 | 34999 ft | 543 kts | 95° |
| 2026-05-08 07:13 | 38.07648 | -152.36125 | 34998 ft | 543 kts | 95° |
| 2026-05-08 07:13 | 38.07430 | -152.26539 | 34999 ft | 543 kts | 95° |
| 2026-05-08 07:14 | 38.07204 | -152.16959 | 34997 ft | 543 kts | 95° |
| 2026-05-08 07:14 | 38.06970 | -152.07381 | 34999 ft | 543 kts | 95° |
| 2026-05-08 07:15 | 38.06730 | -151.97855 | 34996 ft | 544 kts | 95° |
| 2026-05-08 07:15 | 38.06480 | -151.88264 | 34996 ft | 544 kts | 95° |
| 2026-05-08 07:16 | 38.06223 | -151.78670 | 34994 ft | 544 kts | 95° |
| 2026-05-08 07:16 | 38.05958 | -151.69080 | 34993 ft | 544 kts | 95° |
| 2026-05-08 07:17 | 38.05684 | -151.59483 | 34996 ft | 544 kts | 96° |
| 2026-05-08 07:17 | 38.05403 | -151.49878 | 34995 ft | 545 kts | 96° |
| 2026-05-08 07:18 | 38.05114 | -151.40272 | 34994 ft | 545 kts | 96° |
| 2026-05-08 07:18 | 38.04817 | -151.30661 | 34996 ft | 545 kts | 96° |
| 2026-05-08 07:19 | 38.04512 | -151.21054 | 34993 ft | 546 kts | 96° |
| 2026-05-08 07:19 | 38.04199 | -151.11434 | 34996 ft | 546 kts | 96° |
| 2026-05-08 07:20 | 38.03878 | -151.01807 | 34996 ft | 546 kts | 96° |
| 2026-05-08 07:20 | 38.03551 | -150.92237 | 34998 ft | 547 kts | 96° |
| 2026-05-08 07:21 | 38.03211 | -150.82538 | 35005 ft | 547 kts | 96° |
| 2026-05-08 07:21 | 38.02868 | -150.72964 | 35002 ft | 547 kts | 97° |
| 2026-05-08 07:22 | 38.02514 | -150.63309 | 35003 ft | 548 kts | 97° |
| 2026-05-08 07:22 | 38.02153 | -150.53651 | 35003 ft | 548 kts | 97° |
| 2026-05-08 07:23 | 38.01783 | -150.43984 | 35003 ft | 549 kts | 97° |
| 2026-05-08 07:23 | 38.01405 | -150.34310 | 35003 ft | 549 kts | 97° |
| 2026-05-08 07:24 | 38.01019 | -150.24640 | 35001 ft | 549 kts | 97° |
| 2026-05-08 07:24 | 38.00625 | -150.14967 | 35005 ft | 550 kts | 97° |
| 2026-05-08 07:25 | 38.00223 | -150.05284 | 35004 ft | 550 kts | 97° |
| 2026-05-08 07:26 | 38.00098 | -149.90694 | 35014 ft | 554 kts | 92° |
| 2026-05-08 07:26 | 38.00343 | -149.80920 | 35009 ft | 555 kts | 92° |
| 2026-05-08 07:27 | 38.00572 | -149.71134 | 35010 ft | 555 kts | 92° |
| 2026-05-08 07:27 | 38.00760 | -149.61420 | 35008 ft | 555 kts | 92° |
| 2026-05-08 07:28 | 38.00928 | -149.51636 | 35008 ft | 555 kts | 93° |
| 2026-05-08 07:28 | 38.01087 | -149.41841 | 35014 ft | 556 kts | 93° |
| 2026-05-08 07:29 | 38.01241 | -149.32052 | 35007 ft | 556 kts | 93° |
| 2026-05-08 07:29 | 38.01388 | -149.22257 | 35009 ft | 556 kts | 93° |
| 2026-05-08 07:30 | 38.01528 | -149.12453 | 35011 ft | 556 kts | 93° |
| 2026-05-08 07:30 | 38.01659 | -149.02636 | 35018 ft | 556 kts | 93° |
| 2026-05-08 07:31 | 38.01781 | -148.92821 | 35015 ft | 557 kts | 93° |
| 2026-05-08 07:31 | 38.01896 | -148.82995 | 35014 ft | 557 kts | 94° |
| 2026-05-08 07:32 | 38.02003 | -148.73160 | 35020 ft | 558 kts | 94° |
| 2026-05-08 07:32 | 38.02101 | -148.63315 | 35018 ft | 559 kts | 94° |
| 2026-05-08 07:33 | 38.02191 | -148.53523 | 35023 ft | 559 kts | 94° |
| 2026-05-08 07:33 | 38.02274 | -148.43654 | 35024 ft | 559 kts | 94° |
| 2026-05-08 07:34 | 38.02348 | -148.33789 | 35020 ft | 559 kts | 94° |
| 2026-05-08 07:34 | 38.02414 | -148.23915 | 35020 ft | 560 kts | 94° |
| 2026-05-08 07:35 | 38.02472 | -148.14051 | 35025 ft | 560 kts | 94° |
| 2026-05-08 07:35 | 38.02521 | -148.04168 | 35026 ft | 560 kts | 94° |
| 2026-05-08 07:36 | 38.02562 | -147.94278 | 35031 ft | 561 kts | 94° |
| 2026-05-08 07:36 | 38.02595 | -147.84378 | 35030 ft | 562 kts | 94° |
| 2026-05-08 07:37 | 38.02620 | -147.74472 | 35038 ft | 562 kts | 95° |
| 2026-05-08 07:37 | 38.02636 | -147.64555 | 35035 ft | 563 kts | 95° |
| 2026-05-08 07:38 | 38.02644 | -147.54616 | 35028 ft | 563 kts | 95° |
| 2026-05-08 07:38 | 38.02644 | -147.44679 | 35031 ft | 564 kts | 95° |
| 2026-05-08 07:39 | 38.02635 | -147.34730 | 35031 ft | 564 kts | 95° |
| 2026-05-08 07:39 | 38.02618 | -147.24778 | 35032 ft | 564 kts | 95° |
| 2026-05-08 07:40 | 38.02593 | -147.14829 | 35035 ft | 565 kts | 95° |
| 2026-05-08 07:40 | 38.02559 | -147.04932 | 35041 ft | 565 kts | 95° |
| 2026-05-08 07:41 | 38.02517 | -146.94953 | 35042 ft | 566 kts | 95° |
| 2026-05-08 07:41 | 38.02466 | -146.84971 | 35043 ft | 566 kts | 95° |
| 2026-05-08 07:42 | 38.02407 | -146.74967 | 35039 ft | 567 kts | 95° |
| 2026-05-08 07:42 | 38.02339 | -146.64965 | 35046 ft | 567 kts | 96° |
| 2026-05-08 07:43 | 38.02263 | -146.54958 | 35039 ft | 568 kts | 96° |
| 2026-05-08 07:43 | 38.02178 | -146.44917 | 35046 ft | 568 kts | 96° |
| 2026-05-08 07:44 | 38.02084 | -146.34900 | 35044 ft | 569 kts | 96° |
| 2026-05-08 07:44 | 38.01982 | -146.24866 | 35044 ft | 569 kts | 96° |
| 2026-05-08 07:45 | 38.01872 | -146.14830 | 35051 ft | 569 kts | 96° |
| 2026-05-08 07:45 | 38.01752 | -146.04780 | 35118 ft | 572 kts | 96° |
| 2026-05-08 07:45 | 38.01689 | -145.99797 | 35408 ft | 572 kts | 96° |
| 2026-05-08 07:46 | 38.01624 | -145.94760 | 35771 ft | 571 kts | 96° |
| 2026-05-08 07:46 | 38.01559 | -145.89730 | 36107 ft | 570 kts | 96° |
| 2026-05-08 07:46 | 38.01490 | -145.84709 | 36418 ft | 569 kts | 97° |
| 2026-05-08 07:46 | 38.01419 | -145.79703 | 36710 ft | 569 kts | 97° |
| 2026-05-08 07:47 | 38.01345 | -145.74673 | 36932 ft | 570 kts | 97° |
| 2026-05-08 07:47 | 38.01188 | -145.64589 | 37053 ft | 573 kts | 97° |
| 2026-05-08 07:48 | 38.01028 | -145.54507 | 37059 ft | 570 kts | 97° |
| 2026-05-08 07:48 | 38.00860 | -145.44505 | 37053 ft | 567 kts | 97° |
| 2026-05-08 07:49 | 38.00681 | -145.34519 | 37057 ft | 566 kts | 97° |
| 2026-05-08 07:49 | 38.00494 | -145.24542 | 37061 ft | 566 kts | 97° |
| 2026-05-08 07:50 | 38.00299 | -145.14541 | 37068 ft | 568 kts | 97° |
| 2026-05-08 07:50 | 38.00203 | -145.04498 | 37065 ft | 573 kts | 92° |
| 2026-05-08 07:51 | 38.01191 | -144.94396 | 37076 ft | 582 kts | 81° |
| 2026-05-08 07:51 | 38.03308 | -144.84461 | 37076 ft | 585 kts | 76° |
| 2026-05-08 07:52 | 38.05616 | -144.74539 | 37066 ft | 586 kts | 76° |
| 2026-05-08 07:52 | 38.07877 | -144.64592 | 37063 ft | 587 kts | 76° |
| 2026-05-08 07:53 | 38.10080 | -144.54621 | 37065 ft | 586 kts | 77° |
| 2026-05-08 07:53 | 38.12257 | -144.44648 | 37069 ft | 586 kts | 77° |
| 2026-05-08 07:54 | 38.14427 | -144.34680 | 37063 ft | 585 kts | 77° |
| 2026-05-08 07:54 | 38.16588 | -144.24732 | 37068 ft | 584 kts | 77° |
| 2026-05-08 07:55 | 38.18742 | -144.14785 | 37071 ft | 583 kts | 77° |
| 2026-05-08 07:55 | 38.20882 | -144.04855 | 37068 ft | 583 kts | 77° |
| 2026-05-08 07:56 | 38.23015 | -143.94909 | 37080 ft | 583 kts | 77° |
| 2026-05-08 07:56 | 38.25137 | -143.84966 | 37074 ft | 583 kts | 77° |
| 2026-05-08 07:57 | 38.27240 | -143.75071 | 37076 ft | 583 kts | 77° |
| 2026-05-08 07:57 | 38.29347 | -143.65109 | 37081 ft | 583 kts | 77° |
| 2026-05-08 07:58 | 38.31447 | -143.55136 | 37077 ft | 584 kts | 77° |
| 2026-05-08 07:58 | 38.33202 | -143.46769 | 37077 ft | 584 kts | 77° |
| 2026-05-08 07:59 | 38.35628 | -143.35142 | 37080 ft | 584 kts | 77° |
| 2026-05-08 07:59 | 38.37372 | -143.26750 | 37080 ft | 584 kts | 77° |
| 2026-05-08 08:00 | 38.39442 | -143.16741 | 37085 ft | 585 kts | 77° |
| 2026-05-08 08:00 | 38.41508 | -143.06710 | 37086 ft | 585 kts | 77° |
| 2026-05-08 08:01 | 38.43565 | -142.96672 | 37084 ft | 585 kts | 77° |
| 2026-05-08 08:01 | 38.45611 | -142.86638 | 37080 ft | 585 kts | 77° |
| 2026-05-08 08:02 | 38.47650 | -142.76594 | 37079 ft | 585 kts | 77° |
| 2026-05-08 08:02 | 38.49681 | -142.66541 | 37086 ft | 584 kts | 77° |
| 2026-05-08 08:03 | 38.51699 | -142.56500 | 37087 ft | 584 kts | 77° |
| 2026-05-08 08:03 | 38.53697 | -142.46517 | 37087 ft | 584 kts | 78° |
| 2026-05-08 08:04 | 38.55700 | -142.36457 | 37079 ft | 584 kts | 78° |
| 2026-05-08 08:04 | 38.57694 | -142.26392 | 37091 ft | 584 kts | 78° |
| 2026-05-08 08:05 | 38.59678 | -142.16329 | 37104 ft | 584 kts | 78° |
| 2026-05-08 08:05 | 38.61654 | -142.06260 | 37094 ft | 584 kts | 78° |
| 2026-05-08 08:06 | 38.63624 | -141.96173 | 37096 ft | 584 kts | 78° |
| 2026-05-08 08:06 | 38.65584 | -141.86086 | 37097 ft | 584 kts | 78° |
| 2026-05-08 08:07 | 38.67534 | -141.75998 | 37093 ft | 584 kts | 78° |
| 2026-05-08 08:07 | 38.69477 | -141.65895 | 37094 ft | 584 kts | 78° |
| 2026-05-08 08:08 | 38.71411 | -141.55790 | 37097 ft | 584 kts | 78° |
| 2026-05-08 08:08 | 38.73336 | -141.45681 | 37101 ft | 584 kts | 78° |
| 2026-05-08 08:09 | 38.75241 | -141.35629 | 37098 ft | 584 kts | 78° |
| 2026-05-08 08:09 | 38.77146 | -141.25522 | 37095 ft | 584 kts | 78° |
| 2026-05-08 08:10 | 38.79043 | -141.15410 | 37108 ft | 584 kts | 78° |
| 2026-05-08 08:10 | 38.80931 | -141.05288 | 37106 ft | 583 kts | 78° |
| 2026-05-08 08:11 | 38.82810 | -140.95170 | 37101 ft | 583 kts | 78° |
| 2026-05-08 08:11 | 38.84680 | -140.85042 | 37110 ft | 583 kts | 78° |
| 2026-05-08 08:12 | 38.86541 | -140.74911 | 37113 ft | 583 kts | 78° |
| 2026-05-08 08:12 | 38.88394 | -140.64771 | 37111 ft | 583 kts | 78° |
| 2026-05-08 08:13 | 38.90237 | -140.54633 | 37110 ft | 583 kts | 78° |
| 2026-05-08 08:13 | 38.92060 | -140.44550 | 37108 ft | 583 kts | 78° |
| 2026-05-08 08:14 | 38.93898 | -140.34333 | 37111 ft | 583 kts | 78° |
| 2026-05-08 08:14 | 38.95702 | -140.24245 | 37112 ft | 583 kts | 78° |
| 2026-05-08 08:15 | 38.97510 | -140.14091 | 37114 ft | 583 kts | 78° |
| 2026-05-08 08:15 | 38.99164 | -140.03900 | 37114 ft | 581 kts | 84° |
| 2026-05-08 08:16 | 38.99706 | -139.93587 | 37117 ft | 576 kts | 95° |
| 2026-05-08 08:16 | 38.99158 | -139.83355 | 37119 ft | 572 kts | 99° |
| 2026-05-08 08:17 | 38.98477 | -139.73167 | 37117 ft | 572 kts | 99° |
| 2026-05-08 08:17 | 38.97830 | -139.62964 | 37122 ft | 573 kts | 99° |
| 2026-05-08 08:18 | 38.97215 | -139.52757 | 37125 ft | 573 kts | 99° |
| 2026-05-08 08:18 | 38.96603 | -139.42548 | 37127 ft | 573 kts | 99° |
| 2026-05-08 08:19 | 38.95982 | -139.32412 | 37127 ft | 573 kts | 99° |
| 2026-05-08 08:19 | 38.95345 | -139.22221 | 37126 ft | 573 kts | 99° |
| 2026-05-08 08:20 | 38.94697 | -139.12025 | 37131 ft | 572 kts | 99° |
| 2026-05-08 08:20 | 38.94041 | -139.01845 | 37130 ft | 572 kts | 99° |
| 2026-05-08 08:21 | 38.93377 | -138.91669 | 37129 ft | 572 kts | 99° |
| 2026-05-08 08:21 | 38.92705 | -138.81496 | 37136 ft | 571 kts | 99° |
| 2026-05-08 08:22 | 38.92023 | -138.71327 | 37136 ft | 571 kts | 99° |
| 2026-05-08 08:22 | 38.91335 | -138.61182 | 37138 ft | 571 kts | 99° |
| 2026-05-08 08:23 | 38.90637 | -138.51038 | 37140 ft | 570 kts | 99° |
| 2026-05-08 08:23 | 38.89931 | -138.40898 | 37135 ft | 570 kts | 99° |
| 2026-05-08 08:24 | 38.89218 | -138.30779 | 37143 ft | 569 kts | 99° |
| 2026-05-08 08:24 | 38.88496 | -138.20665 | 37145 ft | 569 kts | 99° |
| 2026-05-08 08:25 | 38.87765 | -138.10554 | 37145 ft | 569 kts | 99° |
| 2026-05-08 08:25 | 38.87030 | -138.00514 | 37150 ft | 568 kts | 99° |
| 2026-05-08 08:26 | 38.86278 | -137.90354 | 37149 ft | 568 kts | 99° |
| 2026-05-08 08:26 | 38.85523 | -137.80266 | 37155 ft | 568 kts | 99° |
| 2026-05-08 08:27 | 38.84764 | -137.70256 | 37153 ft | 568 kts | 99° |
| 2026-05-08 08:27 | 38.83992 | -137.60176 | 37152 ft | 567 kts | 99° |
| 2026-05-08 08:28 | 38.83211 | -137.50108 | 37152 ft | 567 kts | 99° |
| 2026-05-08 08:28 | 38.82423 | -137.40053 | 37151 ft | 567 kts | 99° |
| 2026-05-08 08:29 | 38.81626 | -137.29996 | 37164 ft | 566 kts | 100° |
| 2026-05-08 08:29 | 38.80821 | -137.19955 | 37154 ft | 566 kts | 100° |
| 2026-05-08 08:30 | 38.80008 | -137.09919 | 37152 ft | 565 kts | 100° |
| 2026-05-08 08:30 | 38.78775 | -136.94897 | 37161 ft | 565 kts | 100° |
| 2026-05-08 08:31 | 38.77943 | -136.84897 | 37159 ft | 564 kts | 100° |
| 2026-05-08 08:31 | 38.77103 | -136.74906 | 37165 ft | 563 kts | 100° |
| 2026-05-08 08:32 | 38.76255 | -136.64926 | 37168 ft | 563 kts | 100° |
| 2026-05-08 08:32 | 38.75399 | -136.54954 | 37164 ft | 563 kts | 100° |
| 2026-05-08 08:33 | 38.74537 | -136.44999 | 37163 ft | 562 kts | 100° |
| 2026-05-08 08:33 | 38.73665 | -136.35045 | 37170 ft | 562 kts | 100° |
| 2026-05-08 08:34 | 38.72785 | -136.25098 | 37168 ft | 562 kts | 100° |
| 2026-05-08 08:34 | 38.71899 | -136.15167 | 37170 ft | 561 kts | 100° |
| 2026-05-08 08:35 | 38.71004 | -136.05242 | 37172 ft | 561 kts | 100° |
| 2026-05-08 08:35 | 38.70101 | -135.95323 | 37175 ft | 561 kts | 100° |
| 2026-05-08 08:36 | 38.69190 | -135.85408 | 37180 ft | 560 kts | 100° |
| 2026-05-08 08:36 | 38.68271 | -135.75504 | 37176 ft | 560 kts | 100° |
| 2026-05-08 08:37 | 38.67345 | -135.65615 | 37172 ft | 560 kts | 100° |
| 2026-05-08 08:37 | 38.66411 | -135.55728 | 37172 ft | 559 kts | 100° |
| 2026-05-08 08:38 | 38.65469 | -135.45850 | 37176 ft | 559 kts | 100° |
| 2026-05-08 08:38 | 38.64521 | -135.35990 | 37180 ft | 558 kts | 100° |
| 2026-05-08 08:39 | 38.63565 | -135.26145 | 37173 ft | 558 kts | 100° |
| 2026-05-08 08:39 | 38.62601 | -135.16307 | 37177 ft | 557 kts | 100° |
| 2026-05-08 08:40 | 38.61637 | -135.06552 | 37177 ft | 556 kts | 100° |
| 2026-05-08 08:40 | 38.60660 | -134.96745 | 37177 ft | 556 kts | 100° |
| 2026-05-08 08:41 | 38.59674 | -134.86946 | 37178 ft | 556 kts | 101° |
| 2026-05-08 08:41 | 38.58681 | -134.77153 | 37180 ft | 555 kts | 101° |
| 2026-05-08 08:42 | 38.57682 | -134.67375 | 37177 ft | 555 kts | 101° |
| 2026-05-08 08:42 | 38.56677 | -134.57637 | 37178 ft | 555 kts | 101° |
| 2026-05-08 08:43 | 38.55662 | -134.47876 | 37183 ft | 554 kts | 101° |
| 2026-05-08 08:43 | 38.54640 | -134.38118 | 37182 ft | 554 kts | 101° |
| 2026-05-08 08:44 | 38.53609 | -134.28367 | 37182 ft | 554 kts | 101° |
| 2026-05-08 08:44 | 38.52571 | -134.18626 | 37182 ft | 553 kts | 101° |
| 2026-05-08 08:45 | 38.51533 | -134.08958 | 37183 ft | 553 kts | 101° |
| 2026-05-08 08:45 | 38.50481 | -133.99240 | 37180 ft | 553 kts | 101° |
| 2026-05-08 08:46 | 38.49420 | -133.89524 | 37181 ft | 552 kts | 101° |
| 2026-05-08 08:46 | 38.48352 | -133.79812 | 37182 ft | 552 kts | 101° |
| 2026-05-08 08:47 | 38.47460 | -133.71760 | 37178 ft | 552 kts | 101° |
| 2026-05-08 08:47 | 38.46380 | -133.62073 | 37182 ft | 551 kts | 101° |
| 2026-05-08 08:48 | 38.45293 | -133.52403 | 37183 ft | 551 kts | 101° |
| 2026-05-08 08:48 | 38.44197 | -133.42733 | 37177 ft | 550 kts | 101° |
| 2026-05-08 08:49 | 38.43095 | -133.33075 | 37178 ft | 550 kts | 101° |
| 2026-05-08 08:49 | 38.41987 | -133.23432 | 37178 ft | 549 kts | 101° |
| 2026-05-08 08:50 | 38.40871 | -133.13803 | 37184 ft | 549 kts | 101° |
| 2026-05-08 08:50 | 38.39749 | -133.04187 | 37187 ft | 548 kts | 101° |
| 2026-05-08 08:51 | 38.38620 | -132.94577 | 37179 ft | 548 kts | 101° |
| 2026-05-08 08:51 | 38.37483 | -132.84979 | 37183 ft | 547 kts | 101° |
| 2026-05-08 08:52 | 38.36340 | -132.75393 | 37188 ft | 547 kts | 101° |
| 2026-05-08 08:52 | 38.35191 | -132.65819 | 37191 ft | 546 kts | 101° |
| 2026-05-08 08:53 | 38.34035 | -132.56262 | 37189 ft | 546 kts | 101° |
| 2026-05-08 08:53 | 38.32871 | -132.46709 | 37194 ft | 545 kts | 101° |
| 2026-05-08 08:54 | 38.31703 | -132.37180 | 37194 ft | 544 kts | 101° |
| 2026-05-08 08:54 | 38.30527 | -132.27659 | 37196 ft | 544 kts | 101° |
| 2026-05-08 08:55 | 38.29347 | -132.18169 | 37197 ft | 543 kts | 101° |
| 2026-05-08 08:55 | 38.28160 | -132.08685 | 37200 ft | 542 kts | 101° |
| 2026-05-08 08:56 | 38.26966 | -131.99209 | 37200 ft | 542 kts | 101° |
| 2026-05-08 08:56 | 38.25773 | -131.89807 | 37205 ft | 541 kts | 101° |
| 2026-05-08 08:57 | 38.24567 | -131.80362 | 37207 ft | 541 kts | 101° |
| 2026-05-08 08:57 | 38.23352 | -131.70916 | 37210 ft | 541 kts | 101° |
| 2026-05-08 08:58 | 38.22132 | -131.61490 | 37214 ft | 541 kts | 101° |
| 2026-05-08 08:58 | 38.20903 | -131.52055 | 37215 ft | 540 kts | 101° |
| 2026-05-08 08:59 | 38.19668 | -131.42629 | 37214 ft | 540 kts | 101° |
| 2026-05-08 08:59 | 38.18425 | -131.33206 | 37216 ft | 540 kts | 101° |
| 2026-05-08 09:00 | 38.17176 | -131.23800 | 37218 ft | 540 kts | 101° |
| 2026-05-08 09:00 | 38.15921 | -131.14409 | 37216 ft | 539 kts | 101° |
| 2026-05-08 09:01 | 38.14658 | -131.05013 | 37218 ft | 539 kts | 101° |
| 2026-05-08 09:01 | 38.13398 | -130.95700 | 37223 ft | 538 kts | 101° |
| 2026-05-08 09:02 | 38.12114 | -130.86273 | 37225 ft | 538 kts | 101° |
| 2026-05-08 09:02 | 38.10834 | -130.76930 | 37225 ft | 537 kts | 101° |
| 2026-05-08 09:03 | 38.09547 | -130.67590 | 37225 ft | 536 kts | 101° |
| 2026-05-08 09:03 | 38.08262 | -130.58324 | 37241 ft | 536 kts | 101° |
| 2026-05-08 09:04 | 38.06965 | -130.49020 | 37228 ft | 535 kts | 101° |
| 2026-05-08 09:04 | 38.05661 | -130.39730 | 37238 ft | 535 kts | 101° |
| 2026-05-08 09:05 | 38.04350 | -130.30440 | 37234 ft | 534 kts | 101° |
| 2026-05-08 09:05 | 38.03034 | -130.21171 | 37233 ft | 534 kts | 101° |
| 2026-05-08 09:06 | 38.01712 | -130.11913 | 37234 ft | 533 kts | 101° |
| 2026-05-08 09:06 | 38.00384 | -130.02663 | 37234 ft | 533 kts | 101° |
| 2026-05-08 09:07 | 37.99026 | -129.93421 | 37234 ft | 533 kts | 102° |
| 2026-05-08 09:07 | 37.97616 | -129.84206 | 37237 ft | 533 kts | 102° |
| 2026-05-08 09:08 | 37.96196 | -129.74994 | 37244 ft | 532 kts | 102° |
| 2026-05-08 09:08 | 37.94779 | -129.65797 | 37249 ft | 532 kts | 102° |
| 2026-05-08 09:09 | 37.93358 | -129.56596 | 37242 ft | 532 kts | 102° |
| 2026-05-08 09:09 | 37.91932 | -129.47409 | 37230 ft | 532 kts | 102° |
| 2026-05-08 09:10 | 37.90500 | -129.38232 | 37238 ft | 531 kts | 102° |